<?xml version="1.0" encoding="UTF-8"?><gpx xmlns="http://www.topografix.com/GPX/1/1" version="1.1" creator="iOrient"><trk><name>-- Тест отметки треком Щелчок</name><trkseg><trkpt lat="56.2720400" lon="43.9935367"><time>2023-06-09T16:01:18.867</time></trkpt><trkpt lat="56.2720417" lon="43.9935417"><time>2023-06-09T16:01:20</time></trkpt><trkpt lat="56.2720600" lon="43.9936367"><time>2023-06-09T16:01:21.343</time></trkpt><trkpt lat="56.2721050" lon="43.9936300"><time>2023-06-09T16:01:25.847</time></trkpt><trkpt lat="56.2721383" lon="43.9935717"><time>2023-06-09T16:01:30.840</time></trkpt><trkpt lat="56.2720800" lon="43.9936367"><time>2023-06-09T16:01:39.837</time></trkpt><trkpt lat="56.2720267" lon="43.9936783"><time>2023-06-09T16:01:41.840</time></trkpt><trkpt lat="56.2719700" lon="43.9937300"><time>2023-06-09T16:01:43.843</time></trkpt><trkpt lat="56.2718867" lon="43.9937717"><time>2023-06-09T16:01:45.840</time></trkpt><trkpt lat="56.2718367" lon="43.9937967"><time>2023-06-09T16:01:46.843</time></trkpt><trkpt lat="56.2717933" lon="43.9938233"><time>2023-06-09T16:01:47.843</time></trkpt><trkpt lat="56.2717450" lon="43.9938367"><time>2023-06-09T16:01:48.867</time></trkpt><trkpt lat="56.2717450" lon="43.9938367"><time>2023-06-09T16:01:50.020</time></trkpt><trkpt lat="56.2716867" lon="43.9938383"><time>2023-06-09T16:01:53.843</time></trkpt><trkpt lat="56.2716333" lon="43.9938567"><time>2023-06-09T16:01:55.840</time></trkpt><trkpt lat="56.2715817" lon="43.9938667"><time>2023-06-09T16:01:57.840</time></trkpt><trkpt lat="56.2715217" lon="43.9938800"><time>2023-06-09T16:01:59.837</time></trkpt><trkpt lat="56.2714650" lon="43.9938950"><time>2023-06-09T16:02:01.843</time></trkpt><trkpt lat="56.2714017" lon="43.9939100"><time>2023-06-09T16:02:03.843</time></trkpt><trkpt lat="56.2713350" lon="43.9939383"><time>2023-06-09T16:02:05.857</time></trkpt><trkpt lat="56.2713333" lon="43.9939400"><time>2023-06-09T16:02:06.513</time></trkpt><trkpt lat="56.2712883" lon="43.9939967"><time>2023-06-09T16:02:09.340</time></trkpt><trkpt lat="56.2712567" lon="43.9940550"><time>2023-06-09T16:02:09.840</time></trkpt><trkpt lat="56.2712017" lon="43.9940850"><time>2023-06-09T16:02:10.840</time></trkpt><trkpt lat="56.2711167" lon="43.9941233"><time>2023-06-09T16:02:12.843</time></trkpt><trkpt lat="56.2710550" lon="43.9941617"><time>2023-06-09T16:02:14.840</time></trkpt><trkpt lat="56.2710033" lon="43.9941550"><time>2023-06-09T16:02:15.843</time></trkpt><trkpt lat="56.2709667" lon="43.9942033"><time>2023-06-09T16:02:16.840</time></trkpt><trkpt lat="56.2709250" lon="43.9942400"><time>2023-06-09T16:02:18.840</time></trkpt><trkpt lat="56.2708500" lon="43.9943083"><time>2023-06-09T16:02:20.843</time></trkpt><trkpt lat="56.2708150" lon="43.9943600"><time>2023-06-09T16:02:21.843</time></trkpt><trkpt lat="56.2707667" lon="43.9944133"><time>2023-06-09T16:02:22.843</time></trkpt><trkpt lat="56.2706983" lon="43.9944867"><time>2023-06-09T16:02:23.850</time></trkpt><trkpt lat="56.2706950" lon="43.9945317"><time>2023-06-09T16:02:25.010</time></trkpt><trkpt lat="56.2699267" lon="43.9951717"><time>2023-06-09T16:02:25.520</time></trkpt><trkpt lat="56.2699267" lon="43.9951717"><time>2023-06-09T16:02:25.550</time></trkpt><trkpt lat="56.2699250" lon="43.9951750"><time>2023-06-09T16:02:27.180</time></trkpt><trkpt lat="56.2699250" lon="43.9951767"><time>2023-06-09T16:02:27.830</time></trkpt><trkpt lat="56.2699650" lon="43.9953217"><time>2023-06-09T16:02:31.840</time></trkpt><trkpt lat="56.2700033" lon="43.9954167"><time>2023-06-09T16:02:33.843</time></trkpt><trkpt lat="56.2700350" lon="43.9954900"><time>2023-06-09T16:02:35.840</time></trkpt><trkpt lat="56.2700533" lon="43.9955967"><time>2023-06-09T16:02:38.843</time></trkpt><trkpt lat="56.2700617" lon="43.9956833"><time>2023-06-09T16:02:42.843</time></trkpt><trkpt lat="56.2700783" lon="43.9957783"><time>2023-06-09T16:02:49.843</time></trkpt><trkpt lat="56.2700733" lon="43.9959233"><time>2023-06-09T16:02:52.843</time></trkpt><trkpt lat="56.2700783" lon="43.9960883"><time>2023-06-09T16:02:54.840</time></trkpt><trkpt lat="56.2700817" lon="43.9961900"><time>2023-06-09T16:02:55.850</time></trkpt><trkpt lat="56.2700900" lon="43.9962917"><time>2023-06-09T16:02:56.850</time></trkpt><trkpt lat="56.2700967" lon="43.9964000"><time>2023-06-09T16:02:57.850</time></trkpt><trkpt lat="56.2701050" lon="43.9965067"><time>2023-06-09T16:02:58.850</time></trkpt><trkpt lat="56.2701083" lon="43.9966250"><time>2023-06-09T16:02:59.847</time></trkpt><trkpt lat="56.2701133" lon="43.9967533"><time>2023-06-09T16:03:00.850</time></trkpt><trkpt lat="56.2701183" lon="43.9968833"><time>2023-06-09T16:03:01.850</time></trkpt><trkpt lat="56.2701250" lon="43.9970050"><time>2023-06-09T16:03:02.840</time></trkpt><trkpt lat="56.2701317" lon="43.9971200"><time>2023-06-09T16:03:03.847</time></trkpt><trkpt lat="56.2701350" lon="43.9972267"><time>2023-06-09T16:03:04.850</time></trkpt><trkpt lat="56.2701317" lon="43.9973200"><time>2023-06-09T16:03:05.850</time></trkpt><trkpt lat="56.2701283" lon="43.9974067"><time>2023-06-09T16:03:06.850</time></trkpt><trkpt lat="56.2701267" lon="43.9975350"><time>2023-06-09T16:03:08.850</time></trkpt><trkpt lat="56.2701450" lon="43.9976367"><time>2023-06-09T16:03:10.847</time></trkpt><trkpt lat="56.2701767" lon="43.9977100"><time>2023-06-09T16:03:12.847</time></trkpt><trkpt lat="56.2702000" lon="43.9977933"><time>2023-06-09T16:03:14.847</time></trkpt><trkpt lat="56.2702283" lon="43.9978567"><time>2023-06-09T16:03:16.847</time></trkpt><trkpt lat="56.2702333" lon="43.9979533"><time>2023-06-09T16:03:19.847</time></trkpt><trkpt lat="56.2702167" lon="43.9980400"><time>2023-06-09T16:03:21.847</time></trkpt><trkpt lat="56.2701800" lon="43.9980983"><time>2023-06-09T16:03:23.847</time></trkpt><trkpt lat="56.2701383" lon="43.9981417"><time>2023-06-09T16:03:25.840</time></trkpt><trkpt lat="56.2700933" lon="43.9981833"><time>2023-06-09T16:03:27.847</time></trkpt><trkpt lat="56.2700483" lon="43.9982283"><time>2023-06-09T16:03:29.843</time></trkpt><trkpt lat="56.2700050" lon="43.9982633"><time>2023-06-09T16:03:31.853</time></trkpt><trkpt lat="56.2699567" lon="43.9983100"><time>2023-06-09T16:03:33.863</time></trkpt><trkpt lat="56.2700317" lon="43.9976117"><time>2023-06-09T16:03:34.523</time></trkpt><trkpt lat="56.2700333" lon="43.9976167"><time>2023-06-09T16:03:35.183</time></trkpt><trkpt lat="56.2699283" lon="43.9984967"><time>2023-06-09T16:03:35.680</time></trkpt><trkpt lat="56.2699250" lon="43.9984867"><time>2023-06-09T16:03:36.333</time></trkpt><trkpt lat="56.2698683" lon="43.9984300"><time>2023-06-09T16:03:37.330</time></trkpt><trkpt lat="56.2697917" lon="43.9984533"><time>2023-06-09T16:03:37.827</time></trkpt><trkpt lat="56.2697617" lon="43.9985150"><time>2023-06-09T16:03:39.327</time></trkpt><trkpt lat="56.2697133" lon="43.9985467"><time>2023-06-09T16:03:41.843</time></trkpt><trkpt lat="56.2696517" lon="43.9985433"><time>2023-06-09T16:03:44.837</time></trkpt><trkpt lat="56.2695883" lon="43.9985450"><time>2023-06-09T16:03:47.840</time></trkpt><trkpt lat="56.2695417" lon="43.9985617"><time>2023-06-09T16:03:50.840</time></trkpt><trkpt lat="56.2694867" lon="43.9985833"><time>2023-06-09T16:03:53.843</time></trkpt><trkpt lat="56.2694483" lon="43.9986400"><time>2023-06-09T16:03:56.847</time></trkpt><trkpt lat="56.2694250" lon="43.9987117"><time>2023-06-09T16:03:59.847</time></trkpt><trkpt lat="56.2694317" lon="43.9988133"><time>2023-06-09T16:04:01.847</time></trkpt><trkpt lat="56.2694467" lon="43.9989233"><time>2023-06-09T16:04:03.837</time></trkpt><trkpt lat="56.2694667" lon="43.9990200"><time>2023-06-09T16:04:05.850</time></trkpt><trkpt lat="56.2694867" lon="43.9991333"><time>2023-06-09T16:04:07.853</time></trkpt><trkpt lat="56.2694950" lon="43.9992250"><time>2023-06-09T16:04:08.850</time></trkpt><trkpt lat="56.2695083" lon="43.9993217"><time>2023-06-09T16:04:09.847</time></trkpt><trkpt lat="56.2695250" lon="43.9994083"><time>2023-06-09T16:04:10.850</time></trkpt><trkpt lat="56.2695533" lon="43.9994950"><time>2023-06-09T16:04:11.850</time></trkpt><trkpt lat="56.2695833" lon="43.9995783"><time>2023-06-09T16:04:12.850</time></trkpt><trkpt lat="56.2696067" lon="43.9996533"><time>2023-06-09T16:04:13.853</time></trkpt><trkpt lat="56.2696333" lon="43.9997567"><time>2023-06-09T16:04:14.853</time></trkpt><trkpt lat="56.2696650" lon="43.9998700"><time>2023-06-09T16:04:16.853</time></trkpt><trkpt lat="56.2696917" lon="43.9999783"><time>2023-06-09T16:04:18.867</time></trkpt><trkpt lat="56.2696917" lon="43.9999817"><time>2023-06-09T16:04:20.033</time></trkpt><trkpt lat="56.2696917" lon="44.0000883"><time>2023-06-09T16:04:21.340</time></trkpt><trkpt lat="56.2697067" lon="44.0001700"><time>2023-06-09T16:04:22.840</time></trkpt><trkpt lat="56.2697317" lon="44.0002600"><time>2023-06-09T16:04:25.840</time></trkpt><trkpt lat="56.2697483" lon="44.0003417"><time>2023-06-09T16:04:27.840</time></trkpt><trkpt lat="56.2697650" lon="44.0004267"><time>2023-06-09T16:04:29.840</time></trkpt><trkpt lat="56.2697733" lon="44.0005367"><time>2023-06-09T16:04:32.847</time></trkpt><trkpt lat="56.2697900" lon="44.0006217"><time>2023-06-09T16:04:35.843</time></trkpt><trkpt lat="56.2698100" lon="44.0007133"><time>2023-06-09T16:04:38.857</time></trkpt><trkpt lat="56.2698100" lon="44.0007133"><time>2023-06-09T16:04:39.517</time></trkpt><trkpt lat="56.2698100" lon="44.0008200"><time>2023-06-09T16:04:44.840</time></trkpt><trkpt lat="56.2698167" lon="44.0009267"><time>2023-06-09T16:04:47.843</time></trkpt><trkpt lat="56.2698300" lon="44.0010433"><time>2023-06-09T16:04:48.840</time></trkpt><trkpt lat="56.2698517" lon="44.0011733"><time>2023-06-09T16:04:50.850</time></trkpt><trkpt lat="56.2698517" lon="44.0011733"><time>2023-06-09T16:04:50.880</time></trkpt><trkpt lat="56.2698717" lon="44.0012550"><time>2023-06-09T16:04:55.857</time></trkpt><trkpt lat="56.2698717" lon="44.0012550"><time>2023-06-09T16:04:56.507</time></trkpt><trkpt lat="56.2698933" lon="44.0014083"><time>2023-06-09T16:05:00.840</time></trkpt><trkpt lat="56.2699067" lon="44.0015400"><time>2023-06-09T16:05:02.840</time></trkpt><trkpt lat="56.2699117" lon="44.0016400"><time>2023-06-09T16:05:04.843</time></trkpt><trkpt lat="56.2699150" lon="44.0017667"><time>2023-06-09T16:05:06.843</time></trkpt><trkpt lat="56.2699167" lon="44.0019233"><time>2023-06-09T16:05:08.840</time></trkpt><trkpt lat="56.2699250" lon="44.0020183"><time>2023-06-09T16:05:10.837</time></trkpt><trkpt lat="56.2699333" lon="44.0021050"><time>2023-06-09T16:05:12.837</time></trkpt><trkpt lat="56.2699400" lon="44.0022000"><time>2023-06-09T16:05:15.843</time></trkpt><trkpt lat="56.2699333" lon="44.0022867"><time>2023-06-09T16:05:18.840</time></trkpt><trkpt lat="56.2699183" lon="44.0023700"><time>2023-06-09T16:05:21.843</time></trkpt><trkpt lat="56.2698800" lon="44.0024133"><time>2023-06-09T16:05:24.850</time></trkpt><trkpt lat="56.2698383" lon="44.0025017"><time>2023-06-09T16:05:27.843</time></trkpt><trkpt lat="56.2698133" lon="44.0025883"><time>2023-06-09T16:05:29.860</time></trkpt><trkpt lat="56.2697800" lon="44.0026950"><time>2023-06-09T16:05:31.847</time></trkpt><trkpt lat="56.2697400" lon="44.0027650"><time>2023-06-09T16:05:33.847</time></trkpt><trkpt lat="56.2696917" lon="44.0028150"><time>2023-06-09T16:05:35.857</time></trkpt><trkpt lat="56.2696450" lon="44.0028633"><time>2023-06-09T16:05:39.853</time></trkpt><trkpt lat="56.2696050" lon="44.0029100"><time>2023-06-09T16:05:44.850</time></trkpt><trkpt lat="56.2696417" lon="44.0030200"><time>2023-06-09T16:06:00.867</time></trkpt><trkpt lat="56.2696417" lon="44.0030200"><time>2023-06-09T16:06:02.027</time></trkpt><trkpt lat="56.2696167" lon="44.0029350"><time>2023-06-09T16:06:07.860</time></trkpt><trkpt lat="56.2696167" lon="44.0029350"><time>2023-06-09T16:06:09.020</time></trkpt><trkpt lat="56.2696017" lon="44.0028550"><time>2023-06-09T16:06:15.843</time></trkpt><trkpt lat="56.2695833" lon="44.0027633"><time>2023-06-09T16:06:20.843</time></trkpt><trkpt lat="56.2695500" lon="44.0026633"><time>2023-06-09T16:06:23.840</time></trkpt><trkpt lat="56.2695133" lon="44.0026017"><time>2023-06-09T16:06:26.843</time></trkpt><trkpt lat="56.2694633" lon="44.0025733"><time>2023-06-09T16:06:30.840</time></trkpt><trkpt lat="56.2694133" lon="44.0025900"><time>2023-06-09T16:06:34.827</time></trkpt><trkpt lat="56.2693633" lon="44.0025550"><time>2023-06-09T16:06:39.847</time></trkpt><trkpt lat="56.2693400" lon="44.0024650"><time>2023-06-09T16:06:45.847</time></trkpt><trkpt lat="56.2693367" lon="44.0023650"><time>2023-06-09T16:06:50.850</time></trkpt><trkpt lat="56.2693400" lon="44.0022733"><time>2023-06-09T16:06:56.847</time></trkpt><trkpt lat="56.2693350" lon="44.0021800"><time>2023-06-09T16:07:01.850</time></trkpt><trkpt lat="56.2693450" lon="44.0020850"><time>2023-06-09T16:07:05.847</time></trkpt><trkpt lat="56.2693317" lon="44.0020000"><time>2023-06-09T16:07:11.847</time></trkpt><trkpt lat="56.2692967" lon="44.0019467"><time>2023-06-09T16:07:18.850</time></trkpt><trkpt lat="56.2692450" lon="44.0019417"><time>2023-06-09T16:07:22.847</time></trkpt><trkpt lat="56.2692000" lon="44.0019933"><time>2023-06-09T16:07:27.833</time></trkpt><trkpt lat="56.2691867" lon="44.0020767"><time>2023-06-09T16:07:38.857</time></trkpt><trkpt lat="56.2691450" lon="44.0021433"><time>2023-06-09T16:07:44.853</time></trkpt><trkpt lat="56.2691050" lon="44.0020767"><time>2023-06-09T16:07:49.853</time></trkpt><trkpt lat="56.2691033" lon="44.0019833"><time>2023-06-09T16:07:53.853</time></trkpt><trkpt lat="56.2691517" lon="44.0019467"><time>2023-06-09T16:07:59.853</time></trkpt><trkpt lat="56.2691917" lon="44.0019000"><time>2023-06-09T16:08:05.853</time></trkpt><trkpt lat="56.2691217" lon="44.0017833"><time>2023-06-09T16:08:37.840</time></trkpt><trkpt lat="56.2690667" lon="44.0017400"><time>2023-06-09T16:08:40.853</time></trkpt><trkpt lat="56.2690150" lon="44.0017283"><time>2023-06-09T16:08:43.850</time></trkpt><trkpt lat="56.2691050" lon="44.0016967"><time>2023-06-09T16:08:58.850</time></trkpt><trkpt lat="56.2691000" lon="44.0017933"><time>2023-06-09T16:09:05.857</time></trkpt><trkpt lat="56.2690583" lon="44.0018650"><time>2023-06-09T16:09:08.853</time></trkpt><trkpt lat="56.2690283" lon="44.0019383"><time>2023-06-09T16:09:11.853</time></trkpt><trkpt lat="56.2689950" lon="44.0020167"><time>2023-06-09T16:09:15.853</time></trkpt><trkpt lat="56.2689450" lon="44.0020183"><time>2023-06-09T16:09:19.850</time></trkpt><trkpt lat="56.2689133" lon="44.0020867"><time>2023-06-09T16:09:27.847</time></trkpt><trkpt lat="56.2688667" lon="44.0021200"><time>2023-06-09T16:09:33.850</time></trkpt><trkpt lat="56.2688167" lon="44.0021450"><time>2023-06-09T16:09:37.850</time></trkpt><trkpt lat="56.2687433" lon="44.0021667"><time>2023-06-09T16:09:41.853</time></trkpt><trkpt lat="56.2686767" lon="44.0021917"><time>2023-06-09T16:09:43.853</time></trkpt><trkpt lat="56.2686250" lon="44.0022100"><time>2023-06-09T16:09:46.850</time></trkpt><trkpt lat="56.2685933" lon="44.0021483"><time>2023-06-09T16:09:54.857</time></trkpt><trkpt lat="56.2685400" lon="44.0021783"><time>2023-06-09T16:09:59.850</time></trkpt><trkpt lat="56.2684983" lon="44.0022250"><time>2023-06-09T16:10:02.850</time></trkpt><trkpt lat="56.2684483" lon="44.0022400"><time>2023-06-09T16:10:05.853</time></trkpt><trkpt lat="56.2684000" lon="44.0022467"><time>2023-06-09T16:10:08.853</time></trkpt><trkpt lat="56.2683467" lon="44.0022333"><time>2023-06-09T16:10:11.850</time></trkpt><trkpt lat="56.2683000" lon="44.0022183"><time>2023-06-09T16:10:14.857</time></trkpt><trkpt lat="56.2682350" lon="44.0022267"><time>2023-06-09T16:10:17.837</time></trkpt><trkpt lat="56.2681883" lon="44.0022317"><time>2023-06-09T16:10:20.853</time></trkpt><trkpt lat="56.2681367" lon="44.0022167"><time>2023-06-09T16:10:23.850</time></trkpt><trkpt lat="56.2680683" lon="44.0022283"><time>2023-06-09T16:10:25.853</time></trkpt><trkpt lat="56.2680100" lon="44.0022433"><time>2023-06-09T16:10:27.853</time></trkpt><trkpt lat="56.2679633" lon="44.0022533"><time>2023-06-09T16:10:30.853</time></trkpt><trkpt lat="56.2679000" lon="44.0022383"><time>2023-06-09T16:10:33.857</time></trkpt><trkpt lat="56.2678350" lon="44.0022367"><time>2023-06-09T16:10:36.853</time></trkpt><trkpt lat="56.2677800" lon="44.0022367"><time>2023-06-09T16:10:39.857</time></trkpt><trkpt lat="56.2677067" lon="44.0022283"><time>2023-06-09T16:10:41.853</time></trkpt><trkpt lat="56.2676533" lon="44.0022350"><time>2023-06-09T16:10:43.857</time></trkpt><trkpt lat="56.2676017" lon="44.0022433"><time>2023-06-09T16:10:45.873</time></trkpt><trkpt lat="56.2676017" lon="44.0022417"><time>2023-06-09T16:10:46.817</time></trkpt><trkpt lat="56.2675633" lon="44.0022933"><time>2023-06-09T16:10:54.847</time></trkpt><trkpt lat="56.2675100" lon="44.0023483"><time>2023-06-09T16:10:58.847</time></trkpt><trkpt lat="56.2674617" lon="44.0024167"><time>2023-06-09T16:11:02.843</time></trkpt><trkpt lat="56.2674150" lon="44.0024500"><time>2023-06-09T16:11:05.847</time></trkpt><trkpt lat="56.2673717" lon="44.0024983"><time>2023-06-09T16:11:08.847</time></trkpt><trkpt lat="56.2673367" lon="44.0025600"><time>2023-06-09T16:11:11.843</time></trkpt><trkpt lat="56.2673000" lon="44.0026217"><time>2023-06-09T16:11:14.847</time></trkpt><trkpt lat="56.2672600" lon="44.0026600"><time>2023-06-09T16:11:17.827</time></trkpt><trkpt lat="56.2671967" lon="44.0026817"><time>2023-06-09T16:11:21.847</time></trkpt><trkpt lat="56.2671083" lon="44.0026933"><time>2023-06-09T16:11:23.840</time></trkpt><trkpt lat="56.2669950" lon="44.0027533"><time>2023-06-09T16:11:26.850</time></trkpt><trkpt lat="56.2669583" lon="44.0028017"><time>2023-06-09T16:11:28.853</time></trkpt><trkpt lat="56.2669367" lon="44.0028767"><time>2023-06-09T16:11:30.850</time></trkpt><trkpt lat="56.2669133" lon="44.0029800"><time>2023-06-09T16:11:33.850</time></trkpt><trkpt lat="56.2668983" lon="44.0030800"><time>2023-06-09T16:11:36.853</time></trkpt><trkpt lat="56.2668717" lon="44.0031767"><time>2023-06-09T16:11:39.870</time></trkpt><trkpt lat="56.2668717" lon="44.0031767"><time>2023-06-09T16:11:40.810</time></trkpt><trkpt lat="56.2668233" lon="44.0032550"><time>2023-06-09T16:11:45.847</time></trkpt><trkpt lat="56.2667800" lon="44.0033133"><time>2023-06-09T16:11:47.847</time></trkpt><trkpt lat="56.2667300" lon="44.0033433"><time>2023-06-09T16:11:49.847</time></trkpt><trkpt lat="56.2666817" lon="44.0033750"><time>2023-06-09T16:11:50.847</time></trkpt><trkpt lat="56.2666117" lon="44.0034033"><time>2023-06-09T16:11:52.847</time></trkpt><trkpt lat="56.2665600" lon="44.0033950"><time>2023-06-09T16:11:54.847</time></trkpt><trkpt lat="56.2665083" lon="44.0033733"><time>2023-06-09T16:11:56.847</time></trkpt><trkpt lat="56.2664467" lon="44.0033950"><time>2023-06-09T16:11:59.847</time></trkpt><trkpt lat="56.2664000" lon="44.0034083"><time>2023-06-09T16:12:01.847</time></trkpt><trkpt lat="56.2663750" lon="44.0034983"><time>2023-06-09T16:12:05.850</time></trkpt><trkpt lat="56.2663733" lon="44.0035883"><time>2023-06-09T16:12:08.853</time></trkpt><trkpt lat="56.2663717" lon="44.0036933"><time>2023-06-09T16:12:11.847</time></trkpt><trkpt lat="56.2663700" lon="44.0037967"><time>2023-06-09T16:12:14.870</time></trkpt><trkpt lat="56.2663700" lon="44.0037983"><time>2023-06-09T16:12:16.317</time></trkpt><trkpt lat="56.2663517" lon="44.0038833"><time>2023-06-09T16:12:22.843</time></trkpt><trkpt lat="56.2663417" lon="44.0039967"><time>2023-06-09T16:12:28.847</time></trkpt><trkpt lat="56.2663300" lon="44.0040917"><time>2023-06-09T16:12:30.823</time></trkpt><trkpt lat="56.2663383" lon="44.0041983"><time>2023-06-09T16:12:32.843</time></trkpt><trkpt lat="56.2663467" lon="44.0043067"><time>2023-06-09T16:12:35.850</time></trkpt><trkpt lat="56.2663467" lon="44.0043067"><time>2023-06-09T16:12:35.887</time></trkpt><trkpt lat="56.2663550" lon="44.0043867"><time>2023-06-09T16:12:37.820</time></trkpt><trkpt lat="56.2663550" lon="44.0043883"><time>2023-06-09T16:12:39.173</time></trkpt><trkpt lat="56.2663600" lon="44.0044967"><time>2023-06-09T16:12:41.833</time></trkpt><trkpt lat="56.2663617" lon="44.0046200"><time>2023-06-09T16:12:43.843</time></trkpt><trkpt lat="56.2663817" lon="44.0047367"><time>2023-06-09T16:12:45.843</time></trkpt><trkpt lat="56.2663950" lon="44.0048150"><time>2023-06-09T16:12:47.837</time></trkpt><trkpt lat="56.2663933" lon="44.0049067"><time>2023-06-09T16:12:49.843</time></trkpt><trkpt lat="56.2663750" lon="44.0049867"><time>2023-06-09T16:12:52.843</time></trkpt><trkpt lat="56.2663533" lon="44.0050650"><time>2023-06-09T16:12:55.843</time></trkpt><trkpt lat="56.2663500" lon="44.0051633"><time>2023-06-09T16:12:58.843</time></trkpt><trkpt lat="56.2663617" lon="44.0052700"><time>2023-06-09T16:13:01.847</time></trkpt><trkpt lat="56.2663633" lon="44.0053850"><time>2023-06-09T16:13:04.847</time></trkpt><trkpt lat="56.2663567" lon="44.0054783"><time>2023-06-09T16:13:06.843</time></trkpt><trkpt lat="56.2663567" lon="44.0055750"><time>2023-06-09T16:13:08.847</time></trkpt><trkpt lat="56.2663750" lon="44.0056967"><time>2023-06-09T16:13:11.850</time></trkpt><trkpt lat="56.2664000" lon="44.0058100"><time>2023-06-09T16:13:14.853</time></trkpt><trkpt lat="56.2664233" lon="44.0059217"><time>2023-06-09T16:13:17.853</time></trkpt><trkpt lat="56.2664450" lon="44.0060083"><time>2023-06-09T16:13:20.850</time></trkpt><trkpt lat="56.2664583" lon="44.0060883"><time>2023-06-09T16:13:23.850</time></trkpt><trkpt lat="56.2664650" lon="44.0061917"><time>2023-06-09T16:13:26.853</time></trkpt><trkpt lat="56.2664717" lon="44.0063200"><time>2023-06-09T16:13:28.853</time></trkpt><trkpt lat="56.2664700" lon="44.0064667"><time>2023-06-09T16:13:30.853</time></trkpt><trkpt lat="56.2664700" lon="44.0065783"><time>2023-06-09T16:13:32.850</time></trkpt><trkpt lat="56.2664783" lon="44.0066967"><time>2023-06-09T16:13:34.850</time></trkpt><trkpt lat="56.2664667" lon="44.0067883"><time>2023-06-09T16:13:36.850</time></trkpt><trkpt lat="56.2664650" lon="44.0069000"><time>2023-06-09T16:13:38.857</time></trkpt><trkpt lat="56.2664567" lon="44.0070200"><time>2023-06-09T16:13:40.850</time></trkpt><trkpt lat="56.2664433" lon="44.0071450"><time>2023-06-09T16:13:42.850</time></trkpt><trkpt lat="56.2664167" lon="44.0072450"><time>2023-06-09T16:13:44.850</time></trkpt><trkpt lat="56.2663900" lon="44.0073267"><time>2023-06-09T16:13:46.853</time></trkpt><trkpt lat="56.2663600" lon="44.0074117"><time>2023-06-09T16:13:48.850</time></trkpt><trkpt lat="56.2663400" lon="44.0074850"><time>2023-06-09T16:13:50.853</time></trkpt><trkpt lat="56.2663167" lon="44.0075900"><time>2023-06-09T16:13:53.853</time></trkpt><trkpt lat="56.2663017" lon="44.0076950"><time>2023-06-09T16:13:55.850</time></trkpt><trkpt lat="56.2662867" lon="44.0077800"><time>2023-06-09T16:13:57.850</time></trkpt><trkpt lat="56.2662700" lon="44.0079000"><time>2023-06-09T16:14:00.853</time></trkpt><trkpt lat="56.2662500" lon="44.0080500"><time>2023-06-09T16:14:02.850</time></trkpt><trkpt lat="56.2662350" lon="44.0081633"><time>2023-06-09T16:14:04.850</time></trkpt><trkpt lat="56.2662100" lon="44.0082917"><time>2023-06-09T16:14:06.853</time></trkpt><trkpt lat="56.2662133" lon="44.0084933"><time>2023-06-09T16:14:09.850</time></trkpt><trkpt lat="56.2662117" lon="44.0085767"><time>2023-06-09T16:14:10.850</time></trkpt><trkpt lat="56.2662133" lon="44.0086783"><time>2023-06-09T16:14:13.850</time></trkpt><trkpt lat="56.2662133" lon="44.0087833"><time>2023-06-09T16:14:16.850</time></trkpt><trkpt lat="56.2662183" lon="44.0088783"><time>2023-06-09T16:14:17.850</time></trkpt><trkpt lat="56.2662350" lon="44.0089567"><time>2023-06-09T16:14:19.837</time></trkpt><trkpt lat="56.2662633" lon="44.0091050"><time>2023-06-09T16:14:22.850</time></trkpt><trkpt lat="56.2663033" lon="44.0091850"><time>2023-06-09T16:14:25.850</time></trkpt><trkpt lat="56.2663383" lon="44.0093350"><time>2023-06-09T16:14:27.853</time></trkpt><trkpt lat="56.2663733" lon="44.0094017"><time>2023-06-09T16:14:29.873</time></trkpt><trkpt lat="56.2664683" lon="44.0101633"><time>2023-06-09T16:14:31.307</time></trkpt><trkpt lat="56.2665167" lon="44.0101300"><time>2023-06-09T16:14:33.343</time></trkpt><trkpt lat="56.2665617" lon="44.0101250"><time>2023-06-09T16:14:35.843</time></trkpt><trkpt lat="56.2666250" lon="44.0100867"><time>2023-06-09T16:14:37.847</time></trkpt><trkpt lat="56.2667067" lon="44.0100533"><time>2023-06-09T16:14:39.847</time></trkpt><trkpt lat="56.2667533" lon="44.0100283"><time>2023-06-09T16:14:40.847</time></trkpt><trkpt lat="56.2667967" lon="44.0100067"><time>2023-06-09T16:14:41.843</time></trkpt><trkpt lat="56.2668683" lon="44.0100033"><time>2023-06-09T16:14:43.847</time></trkpt><trkpt lat="56.2669400" lon="44.0099900"><time>2023-06-09T16:14:45.843</time></trkpt><trkpt lat="56.2670100" lon="44.0099583"><time>2023-06-09T16:14:47.847</time></trkpt><trkpt lat="56.2670750" lon="44.0099233"><time>2023-06-09T16:14:49.847</time></trkpt><trkpt lat="56.2671400" lon="44.0099100"><time>2023-06-09T16:14:51.843</time></trkpt><trkpt lat="56.2672167" lon="44.0098867"><time>2023-06-09T16:14:53.850</time></trkpt><trkpt lat="56.2672617" lon="44.0098800"><time>2023-06-09T16:14:54.867</time></trkpt><trkpt lat="56.2672617" lon="44.0098800"><time>2023-06-09T16:14:55.810</time></trkpt><trkpt lat="56.2673233" lon="44.0098567"><time>2023-06-09T16:14:59.843</time></trkpt><trkpt lat="56.2673867" lon="44.0098500"><time>2023-06-09T16:15:02.843</time></trkpt><trkpt lat="56.2674400" lon="44.0098850"><time>2023-06-09T16:15:06.843</time></trkpt><trkpt lat="56.2674883" lon="44.0099517"><time>2023-06-09T16:15:09.843</time></trkpt><trkpt lat="56.2675383" lon="44.0100083"><time>2023-06-09T16:15:13.843</time></trkpt><trkpt lat="56.2675867" lon="44.0100633"><time>2023-06-09T16:15:17.847</time></trkpt><trkpt lat="56.2676317" lon="44.0101333"><time>2023-06-09T16:15:21.847</time></trkpt><trkpt lat="56.2676717" lon="44.0102117"><time>2023-06-09T16:15:24.843</time></trkpt><trkpt lat="56.2677083" lon="44.0102750"><time>2023-06-09T16:15:27.863</time></trkpt><trkpt lat="56.2677083" lon="44.0102767"><time>2023-06-09T16:15:29.300</time></trkpt><trkpt lat="56.2677567" lon="44.0103017"><time>2023-06-09T16:15:31.343</time></trkpt><trkpt lat="56.2678000" lon="44.0103550"><time>2023-06-09T16:15:33.843</time></trkpt><trkpt lat="56.2678367" lon="44.0104467"><time>2023-06-09T16:15:36.847</time></trkpt><trkpt lat="56.2678750" lon="44.0105367"><time>2023-06-09T16:15:39.847</time></trkpt><trkpt lat="56.2679083" lon="44.0106050"><time>2023-06-09T16:15:41.890</time></trkpt><trkpt lat="56.2679083" lon="44.0106050"><time>2023-06-09T16:15:41.933</time></trkpt><trkpt lat="56.2679517" lon="44.0106617"><time>2023-06-09T16:15:44.860</time></trkpt><trkpt lat="56.2679517" lon="44.0106917"><time>2023-06-09T16:15:46.300</time></trkpt><trkpt lat="56.2683233" lon="44.0120100"><time>2023-06-09T16:15:46.793</time></trkpt><trkpt lat="56.2683200" lon="44.0119100"><time>2023-06-09T16:15:47.840</time></trkpt><trkpt lat="56.2683617" lon="44.0119917"><time>2023-06-09T16:15:50.843</time></trkpt><trkpt lat="56.2684067" lon="44.0120450"><time>2023-06-09T16:15:52.863</time></trkpt><trkpt lat="56.2684067" lon="44.0120450"><time>2023-06-09T16:15:53.813</time></trkpt><trkpt lat="56.2684383" lon="44.0121067"><time>2023-06-09T16:15:58.847</time></trkpt><trkpt lat="56.2684800" lon="44.0122000"><time>2023-06-09T16:16:01.847</time></trkpt><trkpt lat="56.2685167" lon="44.0122917"><time>2023-06-09T16:16:04.847</time></trkpt><trkpt lat="56.2685583" lon="44.0123567"><time>2023-06-09T16:16:07.847</time></trkpt><trkpt lat="56.2686033" lon="44.0124017"><time>2023-06-09T16:16:09.847</time></trkpt><trkpt lat="56.2686600" lon="44.0125050"><time>2023-06-09T16:16:12.847</time></trkpt><trkpt lat="56.2687233" lon="44.0125617"><time>2023-06-09T16:16:16.837</time></trkpt><trkpt lat="56.2687683" lon="44.0125883"><time>2023-06-09T16:16:18.843</time></trkpt><trkpt lat="56.2688217" lon="44.0126050"><time>2023-06-09T16:16:20.847</time></trkpt><trkpt lat="56.2689017" lon="44.0126233"><time>2023-06-09T16:16:22.847</time></trkpt><trkpt lat="56.2689700" lon="44.0126250"><time>2023-06-09T16:16:24.847</time></trkpt><trkpt lat="56.2690317" lon="44.0126183"><time>2023-06-09T16:16:26.847</time></trkpt><trkpt lat="56.2690883" lon="44.0126433"><time>2023-06-09T16:16:28.843</time></trkpt><trkpt lat="56.2691550" lon="44.0126567"><time>2023-06-09T16:16:30.847</time></trkpt><trkpt lat="56.2692033" lon="44.0126617"><time>2023-06-09T16:16:31.847</time></trkpt><trkpt lat="56.2692817" lon="44.0126633"><time>2023-06-09T16:16:33.850</time></trkpt><trkpt lat="56.2692833" lon="44.0126667"><time>2023-06-09T16:16:34.793</time></trkpt><trkpt lat="56.2698800" lon="44.0134350"><time>2023-06-09T16:16:35.307</time></trkpt><trkpt lat="56.2698800" lon="44.0134350"><time>2023-06-09T16:16:35.343</time></trkpt><trkpt lat="56.2698800" lon="44.0134317"><time>2023-06-09T16:16:36.680</time></trkpt><trkpt lat="56.2698867" lon="44.0134433"><time>2023-06-09T16:16:38.050</time></trkpt><trkpt lat="56.2699333" lon="44.0133833"><time>2023-06-09T16:16:40.340</time></trkpt><trkpt lat="56.2700033" lon="44.0133967"><time>2023-06-09T16:16:40.840</time></trkpt><trkpt lat="56.2700483" lon="44.0133983"><time>2023-06-09T16:16:41.847</time></trkpt><trkpt lat="56.2701133" lon="44.0134133"><time>2023-06-09T16:16:42.843</time></trkpt><trkpt lat="56.2701800" lon="44.0134200"><time>2023-06-09T16:16:43.847</time></trkpt><trkpt lat="56.2702300" lon="44.0134200"><time>2023-06-09T16:16:44.843</time></trkpt><trkpt lat="56.2702950" lon="44.0134150"><time>2023-06-09T16:16:46.843</time></trkpt><trkpt lat="56.2703500" lon="44.0134400"><time>2023-06-09T16:16:48.843</time></trkpt><trkpt lat="56.2703967" lon="44.0134467"><time>2023-06-09T16:16:50.843</time></trkpt><trkpt lat="56.2704483" lon="44.0134567"><time>2023-06-09T16:16:52.843</time></trkpt><trkpt lat="56.2705133" lon="44.0134600"><time>2023-06-09T16:16:54.847</time></trkpt><trkpt lat="56.2705867" lon="44.0134750"><time>2023-06-09T16:16:56.847</time></trkpt><trkpt lat="56.2706550" lon="44.0134883"><time>2023-06-09T16:16:58.847</time></trkpt><trkpt lat="56.2707283" lon="44.0135000"><time>2023-06-09T16:17:00.847</time></trkpt><trkpt lat="56.2708033" lon="44.0135250"><time>2023-06-09T16:17:02.847</time></trkpt><trkpt lat="56.2708750" lon="44.0135867"><time>2023-06-09T16:17:04.847</time></trkpt><trkpt lat="56.2709450" lon="44.0136550"><time>2023-06-09T16:17:06.853</time></trkpt><trkpt lat="56.2710133" lon="44.0137200"><time>2023-06-09T16:17:08.853</time></trkpt><trkpt lat="56.2710717" lon="44.0137733"><time>2023-06-09T16:17:10.857</time></trkpt><trkpt lat="56.2711333" lon="44.0138283"><time>2023-06-09T16:17:12.853</time></trkpt><trkpt lat="56.2711917" lon="44.0138800"><time>2023-06-09T16:17:14.853</time></trkpt><trkpt lat="56.2712550" lon="44.0139367"><time>2023-06-09T16:17:16.853</time></trkpt><trkpt lat="56.2713300" lon="44.0139917"><time>2023-06-09T16:17:18.857</time></trkpt><trkpt lat="56.2713750" lon="44.0140317"><time>2023-06-09T16:17:19.850</time></trkpt><trkpt lat="56.2714217" lon="44.0140850"><time>2023-06-09T16:17:20.853</time></trkpt><trkpt lat="56.2714617" lon="44.0141400"><time>2023-06-09T16:17:21.857</time></trkpt><trkpt lat="56.2715017" lon="44.0141900"><time>2023-06-09T16:17:22.853</time></trkpt><trkpt lat="56.2715467" lon="44.0142533"><time>2023-06-09T16:17:23.853</time></trkpt><trkpt lat="56.2716150" lon="44.0143300"><time>2023-06-09T16:17:25.857</time></trkpt><trkpt lat="56.2716800" lon="44.0143917"><time>2023-06-09T16:17:27.850</time></trkpt><trkpt lat="56.2717350" lon="44.0144717"><time>2023-06-09T16:17:29.857</time></trkpt><trkpt lat="56.2717800" lon="44.0145800"><time>2023-06-09T16:17:31.857</time></trkpt><trkpt lat="56.2718200" lon="44.0146783"><time>2023-06-09T16:17:33.853</time></trkpt><trkpt lat="56.2718517" lon="44.0147900"><time>2023-06-09T16:17:34.820</time></trkpt><trkpt lat="56.2718783" lon="44.0148817"><time>2023-06-09T16:17:35.847</time></trkpt><trkpt lat="56.2719100" lon="44.0150183"><time>2023-06-09T16:17:37.840</time></trkpt><trkpt lat="56.2719400" lon="44.0150800"><time>2023-06-09T16:17:39.877</time></trkpt><trkpt lat="56.2719400" lon="44.0150800"><time>2023-06-09T16:17:40.817</time></trkpt><trkpt lat="56.2720800" lon="44.0155433"><time>2023-06-09T16:17:41.310</time></trkpt><trkpt lat="56.2721267" lon="44.0156050"><time>2023-06-09T16:17:47.843</time></trkpt><trkpt lat="56.2721633" lon="44.0156883"><time>2023-06-09T16:17:50.843</time></trkpt><trkpt lat="56.2721850" lon="44.0157750"><time>2023-06-09T16:17:53.847</time></trkpt><trkpt lat="56.2721917" lon="44.0158967"><time>2023-06-09T16:17:57.847</time></trkpt><trkpt lat="56.2721933" lon="44.0159933"><time>2023-06-09T16:18:00.847</time></trkpt><trkpt lat="56.2721700" lon="44.0160750"><time>2023-06-09T16:18:03.847</time></trkpt><trkpt lat="56.2721333" lon="44.0161250"><time>2023-06-09T16:18:06.847</time></trkpt><trkpt lat="56.2721533" lon="44.0162083"><time>2023-06-09T16:18:13.853</time></trkpt><trkpt lat="56.2722000" lon="44.0162150"><time>2023-06-09T16:18:16.850</time></trkpt><trkpt lat="56.2722467" lon="44.0162467"><time>2023-06-09T16:18:19.853</time></trkpt><trkpt lat="56.2722867" lon="44.0163050"><time>2023-06-09T16:18:22.853</time></trkpt><trkpt lat="56.2723467" lon="44.0163700"><time>2023-06-09T16:18:25.853</time></trkpt><trkpt lat="56.2723933" lon="44.0164383"><time>2023-06-09T16:18:28.857</time></trkpt><trkpt lat="56.2724100" lon="44.0165200"><time>2023-06-09T16:18:31.850</time></trkpt><trkpt lat="56.2724250" lon="44.0166367"><time>2023-06-09T16:18:34.850</time></trkpt><trkpt lat="56.2724450" lon="44.0167317"><time>2023-06-09T16:18:36.850</time></trkpt><trkpt lat="56.2724417" lon="44.0168583"><time>2023-06-09T16:18:39.853</time></trkpt><trkpt lat="56.2724067" lon="44.0169583"><time>2023-06-09T16:18:42.857</time></trkpt><trkpt lat="56.2723750" lon="44.0170333"><time>2023-06-09T16:18:44.853</time></trkpt><trkpt lat="56.2723500" lon="44.0171067"><time>2023-06-09T16:18:46.853</time></trkpt><trkpt lat="56.2723350" lon="44.0172067"><time>2023-06-09T16:18:49.833</time></trkpt><trkpt lat="56.2723283" lon="44.0173033"><time>2023-06-09T16:18:51.850</time></trkpt><trkpt lat="56.2723183" lon="44.0174000"><time>2023-06-09T16:18:54.853</time></trkpt><trkpt lat="56.2723083" lon="44.0175000"><time>2023-06-09T16:18:56.853</time></trkpt><trkpt lat="56.2722867" lon="44.0176167"><time>2023-06-09T16:18:59.853</time></trkpt><trkpt lat="56.2722883" lon="44.0177083"><time>2023-06-09T16:19:01.850</time></trkpt><trkpt lat="56.2723083" lon="44.0178250"><time>2023-06-09T16:19:03.850</time></trkpt><trkpt lat="56.2723267" lon="44.0179267"><time>2023-06-09T16:19:05.850</time></trkpt><trkpt lat="56.2723450" lon="44.0180217"><time>2023-06-09T16:19:07.850</time></trkpt><trkpt lat="56.2723550" lon="44.0181100"><time>2023-06-09T16:19:08.867</time></trkpt><trkpt lat="56.2723550" lon="44.0181100"><time>2023-06-09T16:19:09.813</time></trkpt><trkpt lat="56.2723517" lon="44.0182100"><time>2023-06-09T16:19:15.847</time></trkpt><trkpt lat="56.2723667" lon="44.0183100"><time>2023-06-09T16:19:19.847</time></trkpt><trkpt lat="56.2723750" lon="44.0184233"><time>2023-06-09T16:19:22.847</time></trkpt><trkpt lat="56.2723800" lon="44.0185250"><time>2023-06-09T16:19:26.847</time></trkpt><trkpt lat="56.2724083" lon="44.0186100"><time>2023-06-09T16:19:29.850</time></trkpt><trkpt lat="56.2724250" lon="44.0186967"><time>2023-06-09T16:19:31.847</time></trkpt><trkpt lat="56.2724317" lon="44.0187933"><time>2023-06-09T16:19:33.843</time></trkpt><trkpt lat="56.2724267" lon="44.0188900"><time>2023-06-09T16:19:37.867</time></trkpt><trkpt lat="56.2724267" lon="44.0188917"><time>2023-06-09T16:19:38.807</time></trkpt><trkpt lat="56.2724250" lon="44.0197417"><time>2023-06-09T16:19:39.313</time></trkpt><trkpt lat="56.2724250" lon="44.0197417"><time>2023-06-09T16:19:39.357</time></trkpt><trkpt lat="56.2724367" lon="44.0198417"><time>2023-06-09T16:19:43.860</time></trkpt><trkpt lat="56.2724367" lon="44.0198417"><time>2023-06-09T16:19:44.793</time></trkpt><trkpt lat="56.2724467" lon="44.0199433"><time>2023-06-09T16:19:46.840</time></trkpt><trkpt lat="56.2724433" lon="44.0200767"><time>2023-06-09T16:19:48.840</time></trkpt><trkpt lat="56.2724217" lon="44.0201850"><time>2023-06-09T16:19:50.847</time></trkpt><trkpt lat="56.2724167" lon="44.0202850"><time>2023-06-09T16:19:52.840</time></trkpt><trkpt lat="56.2724117" lon="44.0203783"><time>2023-06-09T16:19:54.847</time></trkpt><trkpt lat="56.2724183" lon="44.0204800"><time>2023-06-09T16:19:56.843</time></trkpt><trkpt lat="56.2724283" lon="44.0205733"><time>2023-06-09T16:19:58.840</time></trkpt><trkpt lat="56.2724133" lon="44.0206833"><time>2023-06-09T16:20:00.843</time></trkpt><trkpt lat="56.2724133" lon="44.0207700"><time>2023-06-09T16:20:02.843</time></trkpt><trkpt lat="56.2724183" lon="44.0208633"><time>2023-06-09T16:20:04.840</time></trkpt><trkpt lat="56.2724333" lon="44.0209450"><time>2023-06-09T16:20:06.843</time></trkpt><trkpt lat="56.2724733" lon="44.0210183"><time>2023-06-09T16:20:08.847</time></trkpt><trkpt lat="56.2725117" lon="44.0211317"><time>2023-06-09T16:20:10.843</time></trkpt><trkpt lat="56.2725533" lon="44.0212317"><time>2023-06-09T16:20:12.850</time></trkpt><trkpt lat="56.2725917" lon="44.0213333"><time>2023-06-09T16:20:14.830</time></trkpt><trkpt lat="56.2726183" lon="44.0214383"><time>2023-06-09T16:20:16.850</time></trkpt><trkpt lat="56.2726550" lon="44.0215717"><time>2023-06-09T16:20:18.850</time></trkpt><trkpt lat="56.2726800" lon="44.0216533"><time>2023-06-09T16:20:19.850</time></trkpt><trkpt lat="56.2727017" lon="44.0217433"><time>2023-06-09T16:20:20.833</time></trkpt><trkpt lat="56.2727450" lon="44.0218783"><time>2023-06-09T16:20:22.853</time></trkpt><trkpt lat="56.2727650" lon="44.0219533"><time>2023-06-09T16:20:23.850</time></trkpt><trkpt lat="56.2727883" lon="44.0220817"><time>2023-06-09T16:20:25.853</time></trkpt><trkpt lat="56.2728117" lon="44.0222167"><time>2023-06-09T16:20:27.850</time></trkpt><trkpt lat="56.2728417" lon="44.0223533"><time>2023-06-09T16:20:29.847</time></trkpt><trkpt lat="56.2728617" lon="44.0224933"><time>2023-06-09T16:20:31.853</time></trkpt><trkpt lat="56.2728817" lon="44.0226067"><time>2023-06-09T16:20:33.850</time></trkpt><trkpt lat="56.2728967" lon="44.0227000"><time>2023-06-09T16:20:36.857</time></trkpt><trkpt lat="56.2729117" lon="44.0227850"><time>2023-06-09T16:20:39.853</time></trkpt><trkpt lat="56.2729300" lon="44.0228750"><time>2023-06-09T16:20:42.853</time></trkpt><trkpt lat="56.2729533" lon="44.0229633"><time>2023-06-09T16:20:45.853</time></trkpt><trkpt lat="56.2729850" lon="44.0230567"><time>2023-06-09T16:20:48.853</time></trkpt><trkpt lat="56.2730083" lon="44.0231450"><time>2023-06-09T16:20:50.857</time></trkpt><trkpt lat="56.2730367" lon="44.0232217"><time>2023-06-09T16:20:52.850</time></trkpt><trkpt lat="56.2730650" lon="44.0233067"><time>2023-06-09T16:20:54.857</time></trkpt><trkpt lat="56.2730733" lon="44.0234200"><time>2023-06-09T16:20:56.850</time></trkpt><trkpt lat="56.2730933" lon="44.0235383"><time>2023-06-09T16:20:58.850</time></trkpt><trkpt lat="56.2731150" lon="44.0236450"><time>2023-06-09T16:21:00.853</time></trkpt><trkpt lat="56.2731383" lon="44.0237500"><time>2023-06-09T16:21:02.850</time></trkpt><trkpt lat="56.2731567" lon="44.0238750"><time>2023-06-09T16:21:04.850</time></trkpt><trkpt lat="56.2731783" lon="44.0239783"><time>2023-06-09T16:21:06.857</time></trkpt><trkpt lat="56.2731983" lon="44.0240667"><time>2023-06-09T16:21:08.853</time></trkpt><trkpt lat="56.2732283" lon="44.0241717"><time>2023-06-09T16:21:10.853</time></trkpt><trkpt lat="56.2732517" lon="44.0242467"><time>2023-06-09T16:21:12.853</time></trkpt><trkpt lat="56.2732783" lon="44.0243167"><time>2023-06-09T16:21:18.870</time></trkpt><trkpt lat="56.2732783" lon="44.0243167"><time>2023-06-09T16:21:19.803</time></trkpt><trkpt lat="56.2732800" lon="44.0244100"><time>2023-06-09T16:21:22.343</time></trkpt><trkpt lat="56.2732967" lon="44.0244867"><time>2023-06-09T16:21:23.847</time></trkpt><trkpt lat="56.2733150" lon="44.0245767"><time>2023-06-09T16:21:26.847</time></trkpt><trkpt lat="56.2733400" lon="44.0246717"><time>2023-06-09T16:21:30.847</time></trkpt><trkpt lat="56.2733700" lon="44.0247417"><time>2023-06-09T16:21:34.847</time></trkpt><trkpt lat="56.2734117" lon="44.0248100"><time>2023-06-09T16:21:38.843</time></trkpt><trkpt lat="56.2734517" lon="44.0248733"><time>2023-06-09T16:21:42.843</time></trkpt><trkpt lat="56.2734967" lon="44.0249333"><time>2023-06-09T16:21:45.843</time></trkpt><trkpt lat="56.2735417" lon="44.0249633"><time>2023-06-09T16:21:48.850</time></trkpt><trkpt lat="56.2735900" lon="44.0250133"><time>2023-06-09T16:21:51.853</time></trkpt><trkpt lat="56.2736400" lon="44.0250833"><time>2023-06-09T16:21:54.853</time></trkpt><trkpt lat="56.2736900" lon="44.0251550"><time>2023-06-09T16:21:57.850</time></trkpt><trkpt lat="56.2737317" lon="44.0252283"><time>2023-06-09T16:22:00.853</time></trkpt><trkpt lat="56.2737833" lon="44.0252900"><time>2023-06-09T16:22:03.850</time></trkpt><trkpt lat="56.2738250" lon="44.0253533"><time>2023-06-09T16:22:05.850</time></trkpt><trkpt lat="56.2738667" lon="44.0254000"><time>2023-06-09T16:22:07.853</time></trkpt><trkpt lat="56.2739150" lon="44.0254817"><time>2023-06-09T16:22:09.870</time></trkpt><trkpt lat="56.2739150" lon="44.0254817"><time>2023-06-09T16:22:10.797</time></trkpt><trkpt lat="56.2741017" lon="44.0258733"><time>2023-06-09T16:22:11.297</time></trkpt><trkpt lat="56.2741517" lon="44.0259317"><time>2023-06-09T16:22:15.843</time></trkpt><trkpt lat="56.2741800" lon="44.0260200"><time>2023-06-09T16:22:19.847</time></trkpt><trkpt lat="56.2742250" lon="44.0260750"><time>2023-06-09T16:22:23.860</time></trkpt><trkpt lat="56.2742250" lon="44.0260750"><time>2023-06-09T16:22:24.800</time></trkpt><trkpt lat="56.2742650" lon="44.0261267"><time>2023-06-09T16:22:27.347</time></trkpt><trkpt lat="56.2743067" lon="44.0261667"><time>2023-06-09T16:22:29.847</time></trkpt><trkpt lat="56.2743550" lon="44.0262100"><time>2023-06-09T16:22:32.843</time></trkpt><trkpt lat="56.2743450" lon="44.0262933"><time>2023-06-09T16:22:43.847</time></trkpt><trkpt lat="56.2743800" lon="44.0263900"><time>2023-06-09T16:22:51.863</time></trkpt><trkpt lat="56.2743800" lon="44.0263900"><time>2023-06-09T16:22:51.903</time></trkpt><trkpt lat="56.2744117" lon="44.0264483"><time>2023-06-09T16:22:53.870</time></trkpt><trkpt lat="56.2744117" lon="44.0264467"><time>2023-06-09T16:22:54.803</time></trkpt><trkpt lat="56.2744567" lon="44.0264667"><time>2023-06-09T16:22:57.340</time></trkpt><trkpt lat="56.2745050" lon="44.0264667"><time>2023-06-09T16:23:04.843</time></trkpt><trkpt lat="56.2745567" lon="44.0264233"><time>2023-06-09T16:23:06.847</time></trkpt><trkpt lat="56.2746050" lon="44.0263767"><time>2023-06-09T16:23:08.843</time></trkpt><trkpt lat="56.2746600" lon="44.0263317"><time>2023-06-09T16:23:11.847</time></trkpt><trkpt lat="56.2747183" lon="44.0263117"><time>2023-06-09T16:23:15.847</time></trkpt><trkpt lat="56.2747767" lon="44.0263067"><time>2023-06-09T16:23:18.847</time></trkpt><trkpt lat="56.2748233" lon="44.0263167"><time>2023-06-09T16:23:20.847</time></trkpt><trkpt lat="56.2748750" lon="44.0263200"><time>2023-06-09T16:23:22.853</time></trkpt><trkpt lat="56.2749333" lon="44.0263383"><time>2023-06-09T16:23:24.850</time></trkpt><trkpt lat="56.2749983" lon="44.0263717"><time>2023-06-09T16:23:26.820</time></trkpt><trkpt lat="56.2750650" lon="44.0263883"><time>2023-06-09T16:23:28.847</time></trkpt><trkpt lat="56.2751283" lon="44.0263983"><time>2023-06-09T16:23:30.853</time></trkpt><trkpt lat="56.2751867" lon="44.0263717"><time>2023-06-09T16:23:32.853</time></trkpt><trkpt lat="56.2752250" lon="44.0263233"><time>2023-06-09T16:23:35.853</time></trkpt><trkpt lat="56.2752333" lon="44.0262417"><time>2023-06-09T16:23:37.853</time></trkpt><trkpt lat="56.2752317" lon="44.0261500"><time>2023-06-09T16:23:39.853</time></trkpt><trkpt lat="56.2752233" lon="44.0260533"><time>2023-06-09T16:23:41.853</time></trkpt><trkpt lat="56.2752117" lon="44.0259400"><time>2023-06-09T16:23:43.853</time></trkpt><trkpt lat="56.2752033" lon="44.0258333"><time>2023-06-09T16:23:45.853</time></trkpt><trkpt lat="56.2751883" lon="44.0257450"><time>2023-06-09T16:23:47.853</time></trkpt><trkpt lat="56.2751867" lon="44.0256583"><time>2023-06-09T16:23:49.853</time></trkpt><trkpt lat="56.2751900" lon="44.0255583"><time>2023-06-09T16:23:51.850</time></trkpt><trkpt lat="56.2752000" lon="44.0254300"><time>2023-06-09T16:23:53.857</time></trkpt><trkpt lat="56.2752067" lon="44.0252883"><time>2023-06-09T16:23:55.853</time></trkpt><trkpt lat="56.2751950" lon="44.0251700"><time>2023-06-09T16:23:57.857</time></trkpt><trkpt lat="56.2751833" lon="44.0250633"><time>2023-06-09T16:23:59.850</time></trkpt><trkpt lat="56.2751750" lon="44.0249583"><time>2023-06-09T16:24:01.847</time></trkpt><trkpt lat="56.2751683" lon="44.0248483"><time>2023-06-09T16:24:03.860</time></trkpt><trkpt lat="56.2751633" lon="44.0247333"><time>2023-06-09T16:24:05.857</time></trkpt><trkpt lat="56.2751650" lon="44.0246233"><time>2023-06-09T16:24:07.853</time></trkpt><trkpt lat="56.2751667" lon="44.0245067"><time>2023-06-09T16:24:09.853</time></trkpt><trkpt lat="56.2751667" lon="44.0243750"><time>2023-06-09T16:24:11.850</time></trkpt><trkpt lat="56.2751650" lon="44.0242267"><time>2023-06-09T16:24:13.853</time></trkpt><trkpt lat="56.2751717" lon="44.0241367"><time>2023-06-09T16:24:14.857</time></trkpt><trkpt lat="56.2751817" lon="44.0240000"><time>2023-06-09T16:24:16.857</time></trkpt><trkpt lat="56.2751850" lon="44.0238350"><time>2023-06-09T16:24:18.857</time></trkpt><trkpt lat="56.2751883" lon="44.0237417"><time>2023-06-09T16:24:19.853</time></trkpt><trkpt lat="56.2751867" lon="44.0236600"><time>2023-06-09T16:24:20.857</time></trkpt><trkpt lat="56.2751850" lon="44.0235767"><time>2023-06-09T16:24:21.853</time></trkpt><trkpt lat="56.2751833" lon="44.0234950"><time>2023-06-09T16:24:22.853</time></trkpt><trkpt lat="56.2751667" lon="44.0233467"><time>2023-06-09T16:24:24.853</time></trkpt><trkpt lat="56.2751467" lon="44.0232167"><time>2023-06-09T16:24:26.853</time></trkpt><trkpt lat="56.2751283" lon="44.0231017"><time>2023-06-09T16:24:28.853</time></trkpt><trkpt lat="56.2751167" lon="44.0230050"><time>2023-06-09T16:24:30.857</time></trkpt><trkpt lat="56.2751083" lon="44.0229050"><time>2023-06-09T16:24:32.853</time></trkpt><trkpt lat="56.2750967" lon="44.0228000"><time>2023-06-09T16:24:34.857</time></trkpt><trkpt lat="56.2750883" lon="44.0226783"><time>2023-06-09T16:24:36.853</time></trkpt><trkpt lat="56.2750717" lon="44.0225500"><time>2023-06-09T16:24:38.853</time></trkpt><trkpt lat="56.2750667" lon="44.0224133"><time>2023-06-09T16:24:40.850</time></trkpt><trkpt lat="56.2750550" lon="44.0222917"><time>2023-06-09T16:24:42.853</time></trkpt><trkpt lat="56.2750450" lon="44.0221583"><time>2023-06-09T16:24:44.857</time></trkpt><trkpt lat="56.2750367" lon="44.0220317"><time>2023-06-09T16:24:46.853</time></trkpt><trkpt lat="56.2750283" lon="44.0219150"><time>2023-06-09T16:24:48.853</time></trkpt><trkpt lat="56.2750183" lon="44.0217933"><time>2023-06-09T16:24:50.857</time></trkpt><trkpt lat="56.2750100" lon="44.0216750"><time>2023-06-09T16:24:52.857</time></trkpt><trkpt lat="56.2750067" lon="44.0215733"><time>2023-06-09T16:24:54.857</time></trkpt><trkpt lat="56.2750083" lon="44.0214833"><time>2023-06-09T16:25:00.850</time></trkpt><trkpt lat="56.2749967" lon="44.0213967"><time>2023-06-09T16:25:03.857</time></trkpt><trkpt lat="56.2749850" lon="44.0212900"><time>2023-06-09T16:25:06.857</time></trkpt><trkpt lat="56.2749967" lon="44.0212117"><time>2023-06-09T16:25:09.853</time></trkpt><trkpt lat="56.2749817" lon="44.0211050"><time>2023-06-09T16:25:12.857</time></trkpt><trkpt lat="56.2749767" lon="44.0210050"><time>2023-06-09T16:25:15.853</time></trkpt><trkpt lat="56.2750133" lon="44.0209383"><time>2023-06-09T16:25:21.857</time></trkpt><trkpt lat="56.2750350" lon="44.0208650"><time>2023-06-09T16:25:28.850</time></trkpt><trkpt lat="56.2749967" lon="44.0207950"><time>2023-06-09T16:25:49.853</time></trkpt><trkpt lat="56.2749583" lon="44.0207450"><time>2023-06-09T16:25:51.853</time></trkpt><trkpt lat="56.2749283" lon="44.0206800"><time>2023-06-09T16:25:53.853</time></trkpt><trkpt lat="56.2749100" lon="44.0205700"><time>2023-06-09T16:25:56.857</time></trkpt><trkpt lat="56.2748633" lon="44.0205083"><time>2023-06-09T16:25:59.853</time></trkpt><trkpt lat="56.2748233" lon="44.0204650"><time>2023-06-09T16:26:02.853</time></trkpt><trkpt lat="56.2747783" lon="44.0204183"><time>2023-06-09T16:26:06.857</time></trkpt><trkpt lat="56.2747283" lon="44.0204117"><time>2023-06-09T16:26:10.853</time></trkpt><trkpt lat="56.2746867" lon="44.0203683"><time>2023-06-09T16:26:12.857</time></trkpt><trkpt lat="56.2746533" lon="44.0203050"><time>2023-06-09T16:26:15.857</time></trkpt><trkpt lat="56.2746267" lon="44.0202067"><time>2023-06-09T16:26:18.853</time></trkpt><trkpt lat="56.2746383" lon="44.0201250"><time>2023-06-09T16:26:21.853</time></trkpt><trkpt lat="56.2746833" lon="44.0200483"><time>2023-06-09T16:26:25.857</time></trkpt><trkpt lat="56.2747100" lon="44.0199750"><time>2023-06-09T16:26:28.857</time></trkpt><trkpt lat="56.2747083" lon="44.0198883"><time>2023-06-09T16:26:32.853</time></trkpt><trkpt lat="56.2747400" lon="44.0198200"><time>2023-06-09T16:26:38.857</time></trkpt><trkpt lat="56.2747517" lon="44.0197200"><time>2023-06-09T16:26:50.853</time></trkpt><trkpt lat="56.2747083" lon="44.0196650"><time>2023-06-09T16:26:54.857</time></trkpt><trkpt lat="56.2746633" lon="44.0195983"><time>2023-06-09T16:26:57.857</time></trkpt><trkpt lat="56.2746167" lon="44.0195133"><time>2023-06-09T16:27:00.857</time></trkpt><trkpt lat="56.2745800" lon="44.0194383"><time>2023-06-09T16:27:02.857</time></trkpt><trkpt lat="56.2745417" lon="44.0193683"><time>2023-06-09T16:27:04.867</time></trkpt><trkpt lat="56.2745417" lon="44.0193683"><time>2023-06-09T16:27:05.807</time></trkpt><trkpt lat="56.2744883" lon="44.0192450"><time>2023-06-09T16:27:08.347</time></trkpt><trkpt lat="56.2744367" lon="44.0191300"><time>2023-06-09T16:27:09.843</time></trkpt><trkpt lat="56.2743983" lon="44.0190167"><time>2023-06-09T16:27:11.847</time></trkpt><trkpt lat="56.2743667" lon="44.0189233"><time>2023-06-09T16:27:13.847</time></trkpt><trkpt lat="56.2743500" lon="44.0188317"><time>2023-06-09T16:27:15.847</time></trkpt><trkpt lat="56.2743267" lon="44.0187283"><time>2023-06-09T16:27:18.847</time></trkpt><trkpt lat="56.2742933" lon="44.0186600"><time>2023-06-09T16:27:21.847</time></trkpt><trkpt lat="56.2742533" lon="44.0185500"><time>2023-06-09T16:27:24.847</time></trkpt><trkpt lat="56.2742167" lon="44.0184267"><time>2023-06-09T16:27:26.837</time></trkpt><trkpt lat="56.2741933" lon="44.0182983"><time>2023-06-09T16:27:28.843</time></trkpt><trkpt lat="56.2741750" lon="44.0181617"><time>2023-06-09T16:27:30.847</time></trkpt><trkpt lat="56.2741683" lon="44.0180183"><time>2023-06-09T16:27:32.850</time></trkpt><trkpt lat="56.2741650" lon="44.0178733"><time>2023-06-09T16:27:34.850</time></trkpt><trkpt lat="56.2741600" lon="44.0177517"><time>2023-06-09T16:27:36.857</time></trkpt><trkpt lat="56.2741600" lon="44.0177517"><time>2023-06-09T16:27:37.767</time></trkpt><trkpt lat="56.2741767" lon="44.0176650"><time>2023-06-09T16:27:40.347</time></trkpt><trkpt lat="56.2742100" lon="44.0175967"><time>2023-06-09T16:27:42.847</time></trkpt><trkpt lat="56.2741717" lon="44.0175483"><time>2023-06-09T16:27:51.847</time></trkpt><trkpt lat="56.2741217" lon="44.0175317"><time>2023-06-09T16:27:55.850</time></trkpt><trkpt lat="56.2740667" lon="44.0175267"><time>2023-06-09T16:27:58.847</time></trkpt><trkpt lat="56.2739967" lon="44.0175183"><time>2023-06-09T16:28:01.847</time></trkpt><trkpt lat="56.2739433" lon="44.0175150"><time>2023-06-09T16:28:03.847</time></trkpt><trkpt lat="56.2738933" lon="44.0174967"><time>2023-06-09T16:28:05.853</time></trkpt><trkpt lat="56.2738467" lon="44.0174667"><time>2023-06-09T16:28:07.857</time></trkpt><trkpt lat="56.2737850" lon="44.0174267"><time>2023-06-09T16:28:10.853</time></trkpt><trkpt lat="56.2737300" lon="44.0173817"><time>2023-06-09T16:28:13.873</time></trkpt><trkpt lat="56.2737300" lon="44.0173800"><time>2023-06-09T16:28:15.310</time></trkpt><trkpt lat="56.2736950" lon="44.0173267"><time>2023-06-09T16:28:17.347</time></trkpt><trkpt lat="56.2736450" lon="44.0172500"><time>2023-06-09T16:28:18.847</time></trkpt><trkpt lat="56.2736017" lon="44.0172000"><time>2023-06-09T16:28:19.847</time></trkpt><trkpt lat="56.2735533" lon="44.0171617"><time>2023-06-09T16:28:20.847</time></trkpt><trkpt lat="56.2735083" lon="44.0171267"><time>2023-06-09T16:28:21.857</time></trkpt><trkpt lat="56.2735083" lon="44.0171267"><time>2023-06-09T16:28:21.907</time></trkpt><trkpt lat="56.2734500" lon="44.0171033"><time>2023-06-09T16:28:23.863</time></trkpt><trkpt lat="56.2734500" lon="44.0171017"><time>2023-06-09T16:28:24.803</time></trkpt><trkpt lat="56.2733917" lon="44.0170983"><time>2023-06-09T16:28:27.840</time></trkpt><trkpt lat="56.2733317" lon="44.0170767"><time>2023-06-09T16:28:30.847</time></trkpt><trkpt lat="56.2732833" lon="44.0170583"><time>2023-06-09T16:28:33.847</time></trkpt><trkpt lat="56.2732283" lon="44.0170417"><time>2023-06-09T16:28:39.847</time></trkpt><trkpt lat="56.2731733" lon="44.0170333"><time>2023-06-09T16:28:43.847</time></trkpt><trkpt lat="56.2731233" lon="44.0169967"><time>2023-06-09T16:28:46.850</time></trkpt><trkpt lat="56.2730667" lon="44.0169750"><time>2023-06-09T16:28:49.847</time></trkpt><trkpt lat="56.2730200" lon="44.0169517"><time>2023-06-09T16:28:51.847</time></trkpt><trkpt lat="56.2729650" lon="44.0169517"><time>2023-06-09T16:28:53.853</time></trkpt><trkpt lat="56.2728933" lon="44.0169133"><time>2023-06-09T16:28:56.853</time></trkpt><trkpt lat="56.2728333" lon="44.0168733"><time>2023-06-09T16:28:59.850</time></trkpt><trkpt lat="56.2727833" lon="44.0168517"><time>2023-06-09T16:29:01.857</time></trkpt><trkpt lat="56.2727233" lon="44.0167900"><time>2023-06-09T16:29:03.853</time></trkpt><trkpt lat="56.2726817" lon="44.0167083"><time>2023-06-09T16:29:06.857</time></trkpt><trkpt lat="56.2725817" lon="44.0166450"><time>2023-06-09T16:29:08.853</time></trkpt><trkpt lat="56.2725383" lon="44.0165933"><time>2023-06-09T16:29:11.857</time></trkpt><trkpt lat="56.2725083" lon="44.0165133"><time>2023-06-09T16:29:13.853</time></trkpt><trkpt lat="56.2724767" lon="44.0164400"><time>2023-06-09T16:29:16.837</time></trkpt><trkpt lat="56.2724333" lon="44.0163800"><time>2023-06-09T16:29:19.853</time></trkpt><trkpt lat="56.2723900" lon="44.0163367"><time>2023-06-09T16:29:21.850</time></trkpt><trkpt lat="56.2723467" lon="44.0162850"><time>2023-06-09T16:29:23.853</time></trkpt><trkpt lat="56.2723050" lon="44.0162367"><time>2023-06-09T16:29:25.853</time></trkpt><trkpt lat="56.2722600" lon="44.0161800"><time>2023-06-09T16:29:27.850</time></trkpt><trkpt lat="56.2722150" lon="44.0161183"><time>2023-06-09T16:29:29.853</time></trkpt><trkpt lat="56.2721633" lon="44.0160583"><time>2023-06-09T16:29:31.853</time></trkpt><trkpt lat="56.2721217" lon="44.0159817"><time>2023-06-09T16:29:33.857</time></trkpt><trkpt lat="56.2720800" lon="44.0159033"><time>2023-06-09T16:29:35.853</time></trkpt><trkpt lat="56.2720350" lon="44.0158350"><time>2023-06-09T16:29:37.857</time></trkpt><trkpt lat="56.2719867" lon="44.0157667"><time>2023-06-09T16:29:39.853</time></trkpt><trkpt lat="56.2719433" lon="44.0156800"><time>2023-06-09T16:29:41.853</time></trkpt><trkpt lat="56.2718967" lon="44.0155633"><time>2023-06-09T16:29:43.853</time></trkpt><trkpt lat="56.2718733" lon="44.0154750"><time>2023-06-09T16:29:44.853</time></trkpt><trkpt lat="56.2718317" lon="44.0153567"><time>2023-06-09T16:29:46.853</time></trkpt><trkpt lat="56.2718050" lon="44.0152850"><time>2023-06-09T16:29:47.850</time></trkpt><trkpt lat="56.2717583" lon="44.0151800"><time>2023-06-09T16:29:49.857</time></trkpt><trkpt lat="56.2717533" lon="44.0150850"><time>2023-06-09T16:29:50.853</time></trkpt><trkpt lat="56.2717417" lon="44.0149233"><time>2023-06-09T16:29:52.850</time></trkpt><trkpt lat="56.2717183" lon="44.0148117"><time>2023-06-09T16:29:54.853</time></trkpt><trkpt lat="56.2716733" lon="44.0147350"><time>2023-06-09T16:29:56.853</time></trkpt><trkpt lat="56.2716300" lon="44.0146983"><time>2023-06-09T16:29:58.857</time></trkpt><trkpt lat="56.2715950" lon="44.0146350"><time>2023-06-09T16:30:01.850</time></trkpt><trkpt lat="56.2715567" lon="44.0145767"><time>2023-06-09T16:30:03.850</time></trkpt><trkpt lat="56.2714983" lon="44.0145283"><time>2023-06-09T16:30:05.857</time></trkpt><trkpt lat="56.2714583" lon="44.0144667"><time>2023-06-09T16:30:07.857</time></trkpt><trkpt lat="56.2714100" lon="44.0144317"><time>2023-06-09T16:30:09.850</time></trkpt><trkpt lat="56.2713467" lon="44.0143833"><time>2023-06-09T16:30:11.850</time></trkpt><trkpt lat="56.2712833" lon="44.0143117"><time>2023-06-09T16:30:13.850</time></trkpt><trkpt lat="56.2712117" lon="44.0142383"><time>2023-06-09T16:30:15.850</time></trkpt><trkpt lat="56.2711433" lon="44.0141700"><time>2023-06-09T16:30:17.850</time></trkpt><trkpt lat="56.2710867" lon="44.0141117"><time>2023-06-09T16:30:19.853</time></trkpt><trkpt lat="56.2710183" lon="44.0140550"><time>2023-06-09T16:30:21.853</time></trkpt><trkpt lat="56.2709450" lon="44.0140167"><time>2023-06-09T16:30:23.853</time></trkpt><trkpt lat="56.2708833" lon="44.0139667"><time>2023-06-09T16:30:25.853</time></trkpt><trkpt lat="56.2708450" lon="44.0139050"><time>2023-06-09T16:30:27.853</time></trkpt><trkpt lat="56.2708017" lon="44.0138717"><time>2023-06-09T16:30:28.853</time></trkpt><trkpt lat="56.2707483" lon="44.0138150"><time>2023-06-09T16:30:30.850</time></trkpt><trkpt lat="56.2707067" lon="44.0137633"><time>2023-06-09T16:30:32.850</time></trkpt><trkpt lat="56.2706517" lon="44.0136717"><time>2023-06-09T16:30:34.853</time></trkpt><trkpt lat="56.2706400" lon="44.0135750"><time>2023-06-09T16:30:36.853</time></trkpt><trkpt lat="56.2706367" lon="44.0134800"><time>2023-06-09T16:30:38.853</time></trkpt><trkpt lat="56.2706550" lon="44.0133850"><time>2023-06-09T16:30:40.853</time></trkpt><trkpt lat="56.2706900" lon="44.0132917"><time>2023-06-09T16:30:42.853</time></trkpt><trkpt lat="56.2707400" lon="44.0131750"><time>2023-06-09T16:30:44.853</time></trkpt><trkpt lat="56.2707850" lon="44.0130667"><time>2023-06-09T16:30:46.850</time></trkpt><trkpt lat="56.2708033" lon="44.0129833"><time>2023-06-09T16:30:48.853</time></trkpt><trkpt lat="56.2708250" lon="44.0128883"><time>2023-06-09T16:30:51.853</time></trkpt><trkpt lat="56.2708300" lon="44.0128067"><time>2023-06-09T16:30:55.853</time></trkpt><trkpt lat="56.2708417" lon="44.0126817"><time>2023-06-09T16:30:58.853</time></trkpt><trkpt lat="56.2708383" lon="44.0125950"><time>2023-06-09T16:31:00.853</time></trkpt><trkpt lat="56.2708583" lon="44.0124833"><time>2023-06-09T16:31:02.853</time></trkpt><trkpt lat="56.2708600" lon="44.0123717"><time>2023-06-09T16:31:04.870</time></trkpt><trkpt lat="56.2708583" lon="44.0123700"><time>2023-06-09T16:31:05.813</time></trkpt><trkpt lat="56.2708400" lon="44.0122933"><time>2023-06-09T16:31:10.847</time></trkpt><trkpt lat="56.2708267" lon="44.0121950"><time>2023-06-09T16:31:13.843</time></trkpt><trkpt lat="56.2708100" lon="44.0120967"><time>2023-06-09T16:31:17.847</time></trkpt><trkpt lat="56.2707867" lon="44.0120150"><time>2023-06-09T16:31:20.847</time></trkpt><trkpt lat="56.2707500" lon="44.0119433"><time>2023-06-09T16:31:24.843</time></trkpt><trkpt lat="56.2707133" lon="44.0118467"><time>2023-06-09T16:31:28.843</time></trkpt><trkpt lat="56.2706833" lon="44.0117367"><time>2023-06-09T16:31:31.843</time></trkpt><trkpt lat="56.2706467" lon="44.0116750"><time>2023-06-09T16:31:34.840</time></trkpt><trkpt lat="56.2706150" lon="44.0116133"><time>2023-06-09T16:31:37.843</time></trkpt><trkpt lat="56.2705850" lon="44.0115150"><time>2023-06-09T16:31:41.847</time></trkpt><trkpt lat="56.2705483" lon="44.0114150"><time>2023-06-09T16:31:44.843</time></trkpt><trkpt lat="56.2705467" lon="44.0113283"><time>2023-06-09T16:31:46.840</time></trkpt><trkpt lat="56.2705133" lon="44.0112567"><time>2023-06-09T16:31:49.847</time></trkpt><trkpt lat="56.2704750" lon="44.0111367"><time>2023-06-09T16:31:51.843</time></trkpt><trkpt lat="56.2704067" lon="44.0110533"><time>2023-06-09T16:31:53.843</time></trkpt><trkpt lat="56.2703550" lon="44.0109300"><time>2023-06-09T16:31:56.863</time></trkpt><trkpt lat="56.2703550" lon="44.0109300"><time>2023-06-09T16:31:57.803</time></trkpt><trkpt lat="56.2698683" lon="44.0098217"><time>2023-06-09T16:31:58.313</time></trkpt><trkpt lat="56.2698683" lon="44.0098217"><time>2023-06-09T16:31:59.180</time></trkpt><trkpt lat="56.2699150" lon="44.0097917"><time>2023-06-09T16:32:01.843</time></trkpt><trkpt lat="56.2699617" lon="44.0097550"><time>2023-06-09T16:32:05.840</time></trkpt><trkpt lat="56.2700017" lon="44.0096967"><time>2023-06-09T16:32:08.857</time></trkpt><trkpt lat="56.2700017" lon="44.0096967"><time>2023-06-09T16:32:08.900</time></trkpt><trkpt lat="56.2700050" lon="44.0096033"><time>2023-06-09T16:32:11.860</time></trkpt><trkpt lat="56.2700050" lon="44.0096033"><time>2023-06-09T16:32:12.790</time></trkpt><trkpt lat="56.2699900" lon="44.0095150"><time>2023-06-09T16:32:17.840</time></trkpt><trkpt lat="56.2699567" lon="44.0093917"><time>2023-06-09T16:32:18.843</time></trkpt><trkpt lat="56.2699217" lon="44.0093000"><time>2023-06-09T16:32:19.820</time></trkpt><trkpt lat="56.2698917" lon="44.0092367"><time>2023-06-09T16:32:20.840</time></trkpt><trkpt lat="56.2698583" lon="44.0091617"><time>2023-06-09T16:32:21.843</time></trkpt><trkpt lat="56.2698233" lon="44.0090500"><time>2023-06-09T16:32:23.840</time></trkpt><trkpt lat="56.2697750" lon="44.0089317"><time>2023-06-09T16:32:25.853</time></trkpt><trkpt lat="56.2697750" lon="44.0089317"><time>2023-06-09T16:32:26.793</time></trkpt><trkpt lat="56.2697333" lon="44.0088667"><time>2023-06-09T16:32:29.343</time></trkpt><trkpt lat="56.2696750" lon="44.0087817"><time>2023-06-09T16:32:30.840</time></trkpt><trkpt lat="56.2696300" lon="44.0086700"><time>2023-06-09T16:32:32.843</time></trkpt><trkpt lat="56.2696083" lon="44.0085850"><time>2023-06-09T16:32:33.850</time></trkpt><trkpt lat="56.2695750" lon="44.0085067"><time>2023-06-09T16:32:34.843</time></trkpt><trkpt lat="56.2695500" lon="44.0084233"><time>2023-06-09T16:32:36.843</time></trkpt><trkpt lat="56.2695350" lon="44.0083317"><time>2023-06-09T16:32:38.847</time></trkpt><trkpt lat="56.2695233" lon="44.0082383"><time>2023-06-09T16:32:40.840</time></trkpt><trkpt lat="56.2695133" lon="44.0081467"><time>2023-06-09T16:32:42.837</time></trkpt><trkpt lat="56.2695083" lon="44.0080467"><time>2023-06-09T16:32:44.847</time></trkpt><trkpt lat="56.2695100" lon="44.0079600"><time>2023-06-09T16:32:46.847</time></trkpt><trkpt lat="56.2695233" lon="44.0078600"><time>2023-06-09T16:32:48.847</time></trkpt><trkpt lat="56.2695383" lon="44.0077533"><time>2023-06-09T16:32:51.847</time></trkpt><trkpt lat="56.2695600" lon="44.0076500"><time>2023-06-09T16:32:54.853</time></trkpt><trkpt lat="56.2695867" lon="44.0075633"><time>2023-06-09T16:32:56.853</time></trkpt><trkpt lat="56.2696150" lon="44.0074350"><time>2023-06-09T16:32:58.853</time></trkpt><trkpt lat="56.2696300" lon="44.0073450"><time>2023-06-09T16:33:00.853</time></trkpt><trkpt lat="56.2696633" lon="44.0072600"><time>2023-06-09T16:33:02.850</time></trkpt><trkpt lat="56.2697000" lon="44.0071783"><time>2023-06-09T16:33:04.870</time></trkpt><trkpt lat="56.2697000" lon="44.0071783"><time>2023-06-09T16:33:05.820</time></trkpt><trkpt lat="56.2697333" lon="44.0070800"><time>2023-06-09T16:33:11.843</time></trkpt><trkpt lat="56.2697667" lon="44.0069983"><time>2023-06-09T16:33:14.827</time></trkpt><trkpt lat="56.2697933" lon="44.0069233"><time>2023-06-09T16:33:16.843</time></trkpt><trkpt lat="56.2698267" lon="44.0068567"><time>2023-06-09T16:33:18.843</time></trkpt><trkpt lat="56.2698700" lon="44.0067817"><time>2023-06-09T16:33:21.860</time></trkpt><trkpt lat="56.2698700" lon="44.0067817"><time>2023-06-09T16:33:22.817</time></trkpt><trkpt lat="56.2701433" lon="44.0068283"><time>2023-06-09T16:33:23.307</time></trkpt><trkpt lat="56.2701683" lon="44.0066450"><time>2023-06-09T16:33:23.807</time></trkpt><trkpt lat="56.2701817" lon="44.0065533"><time>2023-06-09T16:33:27.810</time></trkpt><trkpt lat="56.2701533" lon="44.0064767"><time>2023-06-09T16:33:32.840</time></trkpt><trkpt lat="56.2701350" lon="44.0063900"><time>2023-06-09T16:33:35.843</time></trkpt><trkpt lat="56.2701050" lon="44.0063083"><time>2023-06-09T16:33:39.847</time></trkpt><trkpt lat="56.2700950" lon="44.0062283"><time>2023-06-09T16:33:42.843</time></trkpt><trkpt lat="56.2700850" lon="44.0061300"><time>2023-06-09T16:33:46.843</time></trkpt><trkpt lat="56.2700933" lon="44.0060483"><time>2023-06-09T16:33:49.843</time></trkpt><trkpt lat="56.2701117" lon="44.0059717"><time>2023-06-09T16:33:54.853</time></trkpt><trkpt lat="56.2701600" lon="44.0059900"><time>2023-06-09T16:34:10.850</time></trkpt><trkpt lat="56.2701183" lon="44.0059567"><time>2023-06-09T16:34:17.850</time></trkpt><trkpt lat="56.2700800" lon="44.0058817"><time>2023-06-09T16:34:20.847</time></trkpt><trkpt lat="56.2700533" lon="44.0058150"><time>2023-06-09T16:34:22.847</time></trkpt><trkpt lat="56.2700250" lon="44.0057500"><time>2023-06-09T16:34:24.853</time></trkpt><trkpt lat="56.2700000" lon="44.0056717"><time>2023-06-09T16:34:28.843</time></trkpt><trkpt lat="56.2699517" lon="44.0057217"><time>2023-06-09T16:34:38.850</time></trkpt><trkpt lat="56.2699067" lon="44.0057950"><time>2023-06-09T16:34:41.870</time></trkpt><trkpt lat="56.2699067" lon="44.0057950"><time>2023-06-09T16:34:42.820</time></trkpt><trkpt lat="56.2698600" lon="44.0058283"><time>2023-06-09T16:34:44.347</time></trkpt><trkpt lat="56.2698067" lon="44.0058750"><time>2023-06-09T16:34:45.847</time></trkpt><trkpt lat="56.2697567" lon="44.0058950"><time>2023-06-09T16:34:47.847</time></trkpt><trkpt lat="56.2697117" lon="44.0059083"><time>2023-06-09T16:34:49.843</time></trkpt><trkpt lat="56.2696500" lon="44.0059150"><time>2023-06-09T16:34:52.847</time></trkpt><trkpt lat="56.2696050" lon="44.0059250"><time>2023-06-09T16:34:54.847</time></trkpt><trkpt lat="56.2695550" lon="44.0059400"><time>2023-06-09T16:34:56.847</time></trkpt><trkpt lat="56.2695083" lon="44.0059467"><time>2023-06-09T16:34:58.863</time></trkpt><trkpt lat="56.2695083" lon="44.0059467"><time>2023-06-09T16:34:59.800</time></trkpt><trkpt lat="56.2694533" lon="44.0059600"><time>2023-06-09T16:35:02.843</time></trkpt><trkpt lat="56.2693817" lon="44.0059617"><time>2023-06-09T16:35:04.840</time></trkpt><trkpt lat="56.2693267" lon="44.0059333"><time>2023-06-09T16:35:06.847</time></trkpt><trkpt lat="56.2692817" lon="44.0059250"><time>2023-06-09T16:35:08.843</time></trkpt><trkpt lat="56.2692300" lon="44.0059450"><time>2023-06-09T16:35:13.860</time></trkpt><trkpt lat="56.2692300" lon="44.0059450"><time>2023-06-09T16:35:13.910</time></trkpt><trkpt lat="56.2691850" lon="44.0059583"><time>2023-06-09T16:35:17.860</time></trkpt><trkpt lat="56.2691850" lon="44.0059583"><time>2023-06-09T16:35:18.807</time></trkpt><trkpt lat="56.2691767" lon="44.0058767"><time>2023-06-09T16:35:23.847</time></trkpt><trkpt lat="56.2691317" lon="44.0058000"><time>2023-06-09T16:35:25.840</time></trkpt><trkpt lat="56.2691800" lon="44.0057567"><time>2023-06-09T16:35:29.850</time></trkpt><trkpt lat="56.2692350" lon="44.0057467"><time>2023-06-09T16:35:32.843</time></trkpt><trkpt lat="56.2692800" lon="44.0057433"><time>2023-06-09T16:35:34.847</time></trkpt><trkpt lat="56.2693633" lon="44.0057517"><time>2023-06-09T16:35:36.843</time></trkpt><trkpt lat="56.2694083" lon="44.0057483"><time>2023-06-09T16:35:37.843</time></trkpt><trkpt lat="56.2694750" lon="44.0057783"><time>2023-06-09T16:35:38.847</time></trkpt><trkpt lat="56.2695717" lon="44.0057733"><time>2023-06-09T16:35:40.840</time></trkpt><trkpt lat="56.2696317" lon="44.0057200"><time>2023-06-09T16:35:42.847</time></trkpt><trkpt lat="56.2697267" lon="44.0056883"><time>2023-06-09T16:35:43.847</time></trkpt><trkpt lat="56.2697850" lon="44.0056367"><time>2023-06-09T16:35:44.843</time></trkpt><trkpt lat="56.2698300" lon="44.0055917"><time>2023-06-09T16:35:45.847</time></trkpt><trkpt lat="56.2698850" lon="44.0054933"><time>2023-06-09T16:35:47.853</time></trkpt><trkpt lat="56.2699383" lon="44.0053833"><time>2023-06-09T16:35:49.850</time></trkpt><trkpt lat="56.2699667" lon="44.0052883"><time>2023-06-09T16:35:51.850</time></trkpt><trkpt lat="56.2700050" lon="44.0051483"><time>2023-06-09T16:35:53.847</time></trkpt><trkpt lat="56.2700250" lon="44.0050300"><time>2023-06-09T16:35:55.857</time></trkpt><trkpt lat="56.2700317" lon="44.0049300"><time>2023-06-09T16:35:57.857</time></trkpt><trkpt lat="56.2700150" lon="44.0048550"><time>2023-06-09T16:35:59.850</time></trkpt><trkpt lat="56.2700317" lon="44.0047100"><time>2023-06-09T16:36:01.853</time></trkpt><trkpt lat="56.2700333" lon="44.0045683"><time>2023-06-09T16:36:03.853</time></trkpt><trkpt lat="56.2700250" lon="44.0044450"><time>2023-06-09T16:36:05.850</time></trkpt><trkpt lat="56.2700283" lon="44.0043017"><time>2023-06-09T16:36:07.847</time></trkpt><trkpt lat="56.2700250" lon="44.0042200"><time>2023-06-09T16:36:08.850</time></trkpt><trkpt lat="56.2700167" lon="44.0041117"><time>2023-06-09T16:36:10.857</time></trkpt><trkpt lat="56.2700017" lon="44.0039867"><time>2023-06-09T16:36:12.847</time></trkpt><trkpt lat="56.2699883" lon="44.0038383"><time>2023-06-09T16:36:14.857</time></trkpt><trkpt lat="56.2699633" lon="44.0037450"><time>2023-06-09T16:36:16.850</time></trkpt><trkpt lat="56.2699467" lon="44.0036267"><time>2023-06-09T16:36:18.853</time></trkpt><trkpt lat="56.2699233" lon="44.0035300"><time>2023-06-09T16:36:20.850</time></trkpt><trkpt lat="56.2699000" lon="44.0034550"><time>2023-06-09T16:36:22.847</time></trkpt><trkpt lat="56.2698817" lon="44.0033617"><time>2023-06-09T16:36:24.853</time></trkpt><trkpt lat="56.2698700" lon="44.0032633"><time>2023-06-09T16:36:26.857</time></trkpt><trkpt lat="56.2698600" lon="44.0031467"><time>2023-06-09T16:36:29.850</time></trkpt><trkpt lat="56.2698583" lon="44.0030350"><time>2023-06-09T16:36:32.853</time></trkpt><trkpt lat="56.2698600" lon="44.0029433"><time>2023-06-09T16:36:34.853</time></trkpt><trkpt lat="56.2698933" lon="44.0028067"><time>2023-06-09T16:36:36.850</time></trkpt><trkpt lat="56.2699150" lon="44.0027250"><time>2023-06-09T16:36:38.853</time></trkpt><trkpt lat="56.2699317" lon="44.0026483"><time>2023-06-09T16:36:40.850</time></trkpt><trkpt lat="56.2699617" lon="44.0025417"><time>2023-06-09T16:36:42.850</time></trkpt><trkpt lat="56.2699933" lon="44.0024450"><time>2023-06-09T16:36:44.850</time></trkpt><trkpt lat="56.2700150" lon="44.0023617"><time>2023-06-09T16:36:46.857</time></trkpt><trkpt lat="56.2700250" lon="44.0022717"><time>2023-06-09T16:36:48.850</time></trkpt><trkpt lat="56.2700350" lon="44.0021833"><time>2023-06-09T16:36:50.853</time></trkpt><trkpt lat="56.2700517" lon="44.0020733"><time>2023-06-09T16:36:53.853</time></trkpt><trkpt lat="56.2700650" lon="44.0019617"><time>2023-06-09T16:36:56.853</time></trkpt><trkpt lat="56.2700767" lon="44.0018317"><time>2023-06-09T16:36:59.853</time></trkpt><trkpt lat="56.2700883" lon="44.0017300"><time>2023-06-09T16:37:01.857</time></trkpt><trkpt lat="56.2701000" lon="44.0016167"><time>2023-06-09T16:37:03.853</time></trkpt><trkpt lat="56.2701117" lon="44.0014883"><time>2023-06-09T16:37:05.850</time></trkpt><trkpt lat="56.2701117" lon="44.0013750"><time>2023-06-09T16:37:07.853</time></trkpt><trkpt lat="56.2701017" lon="44.0012483"><time>2023-06-09T16:37:09.853</time></trkpt><trkpt lat="56.2700833" lon="44.0011483"><time>2023-06-09T16:37:11.853</time></trkpt><trkpt lat="56.2700633" lon="44.0010600"><time>2023-06-09T16:37:13.857</time></trkpt><trkpt lat="56.2700750" lon="44.0009800"><time>2023-06-09T16:37:14.857</time></trkpt><trkpt lat="56.2700717" lon="44.0008650"><time>2023-06-09T16:37:16.850</time></trkpt><trkpt lat="56.2700683" lon="44.0007817"><time>2023-06-09T16:37:18.857</time></trkpt><trkpt lat="56.2700667" lon="44.0006867"><time>2023-06-09T16:37:20.850</time></trkpt><trkpt lat="56.2700567" lon="44.0005583"><time>2023-06-09T16:37:22.857</time></trkpt><trkpt lat="56.2700517" lon="44.0004400"><time>2023-06-09T16:37:24.850</time></trkpt><trkpt lat="56.2700700" lon="44.0003450"><time>2023-06-09T16:37:26.850</time></trkpt><trkpt lat="56.2701133" lon="44.0002400"><time>2023-06-09T16:37:27.853</time></trkpt><trkpt lat="56.2701883" lon="44.0001667"><time>2023-06-09T16:37:29.853</time></trkpt><trkpt lat="56.2702567" lon="44.0001217"><time>2023-06-09T16:37:31.847</time></trkpt><trkpt lat="56.2703067" lon="44.0000717"><time>2023-06-09T16:37:33.853</time></trkpt><trkpt lat="56.2703333" lon="43.9999900"><time>2023-06-09T16:37:36.857</time></trkpt><trkpt lat="56.2703367" lon="43.9998767"><time>2023-06-09T16:37:39.850</time></trkpt><trkpt lat="56.2703383" lon="43.9997900"><time>2023-06-09T16:37:41.847</time></trkpt><trkpt lat="56.2703400" lon="43.9996767"><time>2023-06-09T16:37:44.847</time></trkpt><trkpt lat="56.2703533" lon="43.9995867"><time>2023-06-09T16:37:46.843</time></trkpt><trkpt lat="56.2703467" lon="43.9994617"><time>2023-06-09T16:37:49.853</time></trkpt><trkpt lat="56.2703417" lon="43.9993267"><time>2023-06-09T16:37:51.850</time></trkpt><trkpt lat="56.2703617" lon="43.9991717"><time>2023-06-09T16:37:52.850</time></trkpt><trkpt lat="56.2703550" lon="43.9990667"><time>2023-06-09T16:37:53.853</time></trkpt><trkpt lat="56.2703633" lon="43.9989733"><time>2023-06-09T16:37:54.853</time></trkpt><trkpt lat="56.2703567" lon="43.9988683"><time>2023-06-09T16:37:56.853</time></trkpt><trkpt lat="56.2703083" lon="43.9988333"><time>2023-06-09T16:37:59.853</time></trkpt><trkpt lat="56.2703333" lon="43.9987283"><time>2023-06-09T16:38:02.850</time></trkpt><trkpt lat="56.2703650" lon="43.9986000"><time>2023-06-09T16:38:04.857</time></trkpt><trkpt lat="56.2703750" lon="43.9985067"><time>2023-06-09T16:38:05.857</time></trkpt><trkpt lat="56.2703900" lon="43.9984150"><time>2023-06-09T16:38:06.853</time></trkpt><trkpt lat="56.2704183" lon="43.9983483"><time>2023-06-09T16:38:07.857</time></trkpt><trkpt lat="56.2704883" lon="43.9982583"><time>2023-06-09T16:38:09.850</time></trkpt><trkpt lat="56.2705317" lon="43.9982367"><time>2023-06-09T16:38:10.853</time></trkpt><trkpt lat="56.2705767" lon="43.9982100"><time>2023-06-09T16:38:11.857</time></trkpt><trkpt lat="56.2706500" lon="43.9981517"><time>2023-06-09T16:38:13.853</time></trkpt><trkpt lat="56.2707167" lon="43.9980717"><time>2023-06-09T16:38:15.853</time></trkpt><trkpt lat="56.2707800" lon="43.9979967"><time>2023-06-09T16:38:17.850</time></trkpt><trkpt lat="56.2708417" lon="43.9979383"><time>2023-06-09T16:38:19.853</time></trkpt><trkpt lat="56.2709000" lon="43.9978717"><time>2023-06-09T16:38:21.850</time></trkpt><trkpt lat="56.2709533" lon="43.9978117"><time>2023-06-09T16:38:23.853</time></trkpt><trkpt lat="56.2710033" lon="43.9977567"><time>2023-06-09T16:38:25.853</time></trkpt><trkpt lat="56.2710467" lon="43.9977000"><time>2023-06-09T16:38:27.857</time></trkpt><trkpt lat="56.2710817" lon="43.9976217"><time>2023-06-09T16:38:30.853</time></trkpt><trkpt lat="56.2711417" lon="43.9975500"><time>2023-06-09T16:38:33.853</time></trkpt><trkpt lat="56.2712100" lon="43.9974917"><time>2023-06-09T16:38:35.853</time></trkpt><trkpt lat="56.2712600" lon="43.9974383"><time>2023-06-09T16:38:37.850</time></trkpt><trkpt lat="56.2713150" lon="43.9973917"><time>2023-06-09T16:38:39.853</time></trkpt><trkpt lat="56.2713750" lon="43.9973600"><time>2023-06-09T16:38:41.860</time></trkpt><trkpt lat="56.2714317" lon="43.9973350"><time>2023-06-09T16:38:43.847</time></trkpt><trkpt lat="56.2714750" lon="43.9973017"><time>2023-06-09T16:38:46.857</time></trkpt><trkpt lat="56.2715200" lon="43.9972633"><time>2023-06-09T16:38:49.853</time></trkpt><trkpt lat="56.2715733" lon="43.9972483"><time>2023-06-09T16:38:53.853</time></trkpt><trkpt lat="56.2716233" lon="43.9971933"><time>2023-06-09T16:38:57.850</time></trkpt><trkpt lat="56.2716700" lon="43.9971633"><time>2023-06-09T16:39:00.853</time></trkpt><trkpt lat="56.2717100" lon="43.9971183"><time>2023-06-09T16:39:02.857</time></trkpt><trkpt lat="56.2717333" lon="43.9970267"><time>2023-06-09T16:39:04.853</time></trkpt><trkpt lat="56.2717367" lon="43.9969033"><time>2023-06-09T16:39:06.853</time></trkpt><trkpt lat="56.2717500" lon="43.9967933"><time>2023-06-09T16:39:08.853</time></trkpt><trkpt lat="56.2717650" lon="43.9966883"><time>2023-06-09T16:39:11.870</time></trkpt><trkpt lat="56.2717633" lon="43.9966850"><time>2023-06-09T16:39:13.317</time></trkpt><trkpt lat="56.2717500" lon="43.9965917"><time>2023-06-09T16:39:18.840</time></trkpt><trkpt lat="56.2717667" lon="43.9964983"><time>2023-06-09T16:39:22.840</time></trkpt><trkpt lat="56.2717850" lon="43.9964217"><time>2023-06-09T16:39:24.840</time></trkpt><trkpt lat="56.2718117" lon="43.9963267"><time>2023-06-09T16:39:27.843</time></trkpt><trkpt lat="56.2718400" lon="43.9962483"><time>2023-06-09T16:39:29.843</time></trkpt><trkpt lat="56.2718650" lon="43.9961700"><time>2023-06-09T16:39:32.843</time></trkpt><trkpt lat="56.2718967" lon="43.9960883"><time>2023-06-09T16:39:35.840</time></trkpt><trkpt lat="56.2719167" lon="43.9959783"><time>2023-06-09T16:39:38.847</time></trkpt><trkpt lat="56.2719117" lon="43.9958783"><time>2023-06-09T16:39:42.840</time></trkpt><trkpt lat="56.2719283" lon="43.9957883"><time>2023-06-09T16:39:44.847</time></trkpt><trkpt lat="56.2719550" lon="43.9957217"><time>2023-06-09T16:39:45.847</time></trkpt><trkpt lat="56.2719950" lon="43.9955917"><time>2023-06-09T16:39:46.843</time></trkpt><trkpt lat="56.2720133" lon="43.9954883"><time>2023-06-09T16:39:47.843</time></trkpt><trkpt lat="56.2720217" lon="43.9953967"><time>2023-06-09T16:39:52.843</time></trkpt><trkpt lat="56.2720400" lon="43.9953200"><time>2023-06-09T16:39:54.843</time></trkpt><trkpt lat="56.2720650" lon="43.9952433"><time>2023-06-09T16:39:55.847</time></trkpt><trkpt lat="56.2720883" lon="43.9950733"><time>2023-06-09T16:39:56.863</time></trkpt><trkpt lat="56.2721333" lon="43.9943533"><time>2023-06-09T16:39:58.330</time></trkpt><trkpt lat="56.2721333" lon="43.9943533"><time>2023-06-09T16:39:59.193</time></trkpt><trkpt lat="56.2720750" lon="43.9943550"><time>2023-06-09T16:40:01.843</time></trkpt><trkpt lat="56.2720300" lon="43.9942850"><time>2023-06-09T16:40:03.847</time></trkpt><trkpt lat="56.2719717" lon="43.9942283"><time>2023-06-09T16:40:06.843</time></trkpt><trkpt lat="56.2719083" lon="43.9941650"><time>2023-06-09T16:40:09.847</time></trkpt><trkpt lat="56.2718717" lon="43.9940917"><time>2023-06-09T16:40:13.847</time></trkpt><trkpt lat="56.2718650" lon="43.9940017"><time>2023-06-09T16:40:16.837</time></trkpt></trkseg></trk></gpx>